<?xml version="1.0" encoding="UTF-8" standalone="no" ?>
<gpx xmlns="http://www.topografix.com/GPX/1/1" xmlns:xsi="http://www.w3.org/2001/XMLSchema-instance" xsi:schemaLocation="http://www.topografix.com/GPX/1/1 http://www.topografix.com/GPX/1/1/gpx.xsd" version="1.1" creator="VisuGPX - https://www.visugpx.com">
  <metadata>
    <name>2009 LAGAHL</name>
    <desc><![CDATA[Lozère-Aveyron-Gard-Ardèche-Haute Loire]]></desc>
  </metadata>
  <trk>
    <name><![CDATA[F02]]></name>
    <trkseg>
      <trkpt lat="44.73363" lon="3.83555">
        <ele>962</ele>
        <time>2009-07-11T12:34:53Z</time>
      </trkpt>
      <trkpt lat="44.73362" lon="3.83554">
        <ele>957</ele>
        <time>2009-07-11T12:35:01Z</time>
      </trkpt>
      <trkpt lat="44.73362" lon="3.83554">
        <ele>963</ele>
        <time>2009-07-11T12:35:02Z</time>
      </trkpt>
      <trkpt lat="44.73362" lon="3.83555">
        <ele>965</ele>
        <time>2009-07-11T12:35:07Z</time>
      </trkpt>
      <trkpt lat="44.73362" lon="3.83555">
        <ele>961</ele>
        <time>2009-07-11T12:35:11Z</time>
      </trkpt>
      <trkpt lat="44.73362" lon="3.83555">
        <ele>962</ele>
        <time>2009-07-11T12:35:12Z</time>
      </trkpt>
      <trkpt lat="44.73362" lon="3.83557">
        <ele>958</ele>
        <time>2009-07-11T12:35:37Z</time>
      </trkpt>
      <trkpt lat="44.73362" lon="3.83557">
        <ele>964</ele>
        <time>2009-07-11T12:35:38Z</time>
      </trkpt>
      <trkpt lat="44.73362" lon="3.83557">
        <ele>960</ele>
        <time>2009-07-11T12:35:39Z</time>
      </trkpt>
      <trkpt lat="44.73362" lon="3.83557">
        <ele>961</ele>
        <time>2009-07-11T12:35:55Z</time>
      </trkpt>
      <trkpt lat="44.73363" lon="3.83559">
        <ele>962</ele>
        <time>2009-07-11T12:36:40Z</time>
      </trkpt>
      <trkpt lat="44.73364" lon="3.83559">
        <ele>961</ele>
        <time>2009-07-11T12:37:13Z</time>
      </trkpt>
      <trkpt lat="44.7336" lon="3.8356">
        <ele>961</ele>
        <time>2009-07-11T12:37:30Z</time>
      </trkpt>
      <trkpt lat="44.73361" lon="3.8356">
        <ele>962</ele>
        <time>2009-07-11T12:38:06Z</time>
      </trkpt>
      <trkpt lat="44.73361" lon="3.8356">
        <ele>962</ele>
        <time>2009-07-11T12:39:11Z</time>
      </trkpt>
      <trkpt lat="44.73361" lon="3.8356">
        <ele>962</ele>
        <time>2009-07-11T12:39:59Z</time>
      </trkpt>
      <trkpt lat="44.7336" lon="3.8356">
        <ele>962</ele>
        <time>2009-07-11T12:40:26Z</time>
      </trkpt>
      <trkpt lat="44.73361" lon="3.8356">
        <ele>960</ele>
        <time>2009-07-11T12:40:41Z</time>
      </trkpt>
      <trkpt lat="44.73337" lon="3.8357">
        <ele>962</ele>
        <time>2009-07-11T12:40:53Z</time>
      </trkpt>
      <trkpt lat="44.73302" lon="3.83584">
        <ele>962</ele>
        <time>2009-07-11T12:41:07Z</time>
      </trkpt>
      <trkpt lat="44.73262" lon="3.836">
        <ele>962</ele>
        <time>2009-07-11T12:41:20Z</time>
      </trkpt>
      <trkpt lat="44.7321" lon="3.83617">
        <ele>964</ele>
        <time>2009-07-11T12:41:37Z</time>
      </trkpt>
      <trkpt lat="44.73202" lon="3.83616">
        <ele>966</ele>
        <time>2009-07-11T12:41:40Z</time>
      </trkpt>
      <trkpt lat="44.73145" lon="3.83627">
        <ele>966</ele>
        <time>2009-07-11T12:41:57Z</time>
      </trkpt>
      <trkpt lat="44.73077" lon="3.83641">
        <ele>967</ele>
        <time>2009-07-11T12:42:17Z</time>
      </trkpt>
      <trkpt lat="44.73007" lon="3.83659">
        <ele>971</ele>
        <time>2009-07-11T12:42:38Z</time>
      </trkpt>
      <trkpt lat="44.72938" lon="3.83682">
        <ele>970</ele>
        <time>2009-07-11T12:42:58Z</time>
      </trkpt>
      <trkpt lat="44.72863" lon="3.837">
        <ele>972</ele>
        <time>2009-07-11T12:43:18Z</time>
      </trkpt>
      <trkpt lat="44.72789" lon="3.83717">
        <ele>971</ele>
        <time>2009-07-11T12:43:38Z</time>
      </trkpt>
      <trkpt lat="44.72771" lon="3.83722">
        <ele>972</ele>
        <time>2009-07-11T12:43:43Z</time>
      </trkpt>
      <trkpt lat="44.72701" lon="3.83739">
        <ele>973</ele>
        <time>2009-07-11T12:44:03Z</time>
      </trkpt>
      <trkpt lat="44.72624" lon="3.83779">
        <ele>972</ele>
        <time>2009-07-11T12:44:24Z</time>
      </trkpt>
      <trkpt lat="44.72559" lon="3.83839">
        <ele>972</ele>
        <time>2009-07-11T12:44:44Z</time>
      </trkpt>
      <trkpt lat="44.72521" lon="3.83881">
        <ele>973</ele>
        <time>2009-07-11T12:44:57Z</time>
      </trkpt>
      <trkpt lat="44.72521" lon="3.83885">
        <ele>973</ele>
        <time>2009-07-11T12:44:59Z</time>
      </trkpt>
      <trkpt lat="44.72514" lon="3.83895">
        <ele>973</ele>
        <time>2009-07-11T12:45:03Z</time>
      </trkpt>
      <trkpt lat="44.72468" lon="3.83961">
        <ele>974</ele>
        <time>2009-07-11T12:45:21Z</time>
      </trkpt>
      <trkpt lat="44.72455" lon="3.83982">
        <ele>972</ele>
        <time>2009-07-11T12:45:26Z</time>
      </trkpt>
      <trkpt lat="44.72432" lon="3.83969">
        <ele>971</ele>
        <time>2009-07-11T12:45:32Z</time>
      </trkpt>
      <trkpt lat="44.7242" lon="3.83939">
        <ele>968</ele>
        <time>2009-07-11T12:45:36Z</time>
      </trkpt>
      <trkpt lat="44.72406" lon="3.83905">
        <ele>966</ele>
        <time>2009-07-11T12:45:40Z</time>
      </trkpt>
      <trkpt lat="44.72388" lon="3.8387">
        <ele>963</ele>
        <time>2009-07-11T12:45:44Z</time>
      </trkpt>
      <trkpt lat="44.72345" lon="3.83783">
        <ele>960</ele>
        <time>2009-07-11T12:45:53Z</time>
      </trkpt>
      <trkpt lat="44.72334" lon="3.83735">
        <ele>959</ele>
        <time>2009-07-11T12:45:58Z</time>
      </trkpt>
      <trkpt lat="44.72332" lon="3.83716">
        <ele>959</ele>
        <time>2009-07-11T12:46:07Z</time>
      </trkpt>
      <trkpt lat="44.7233" lon="3.83709">
        <ele>958</ele>
        <time>2009-07-11T12:46:40Z</time>
      </trkpt>
      <trkpt lat="44.72322" lon="3.83637">
        <ele>958</ele>
        <time>2009-07-11T12:46:53Z</time>
      </trkpt>
      <trkpt lat="44.72298" lon="3.83564">
        <ele>960</ele>
        <time>2009-07-11T12:47:09Z</time>
      </trkpt>
      <trkpt lat="44.72269" lon="3.83512">
        <ele>962</ele>
        <time>2009-07-11T12:47:25Z</time>
      </trkpt>
      <trkpt lat="44.72245" lon="3.83474">
        <ele>966</ele>
        <time>2009-07-11T12:47:38Z</time>
      </trkpt>
      <trkpt lat="44.72216" lon="3.83428">
        <ele>968</ele>
        <time>2009-07-11T12:47:54Z</time>
      </trkpt>
      <trkpt lat="44.72178" lon="3.83365">
        <ele>971</ele>
        <time>2009-07-11T12:48:15Z</time>
      </trkpt>
      <trkpt lat="44.72177" lon="3.83362">
        <ele>971</ele>
        <time>2009-07-11T12:48:16Z</time>
      </trkpt>
      <trkpt lat="44.72154" lon="3.83312">
        <ele>975</ele>
        <time>2009-07-11T12:48:31Z</time>
      </trkpt>
      <trkpt lat="44.72138" lon="3.83234">
        <ele>977</ele>
        <time>2009-07-11T12:48:51Z</time>
      </trkpt>
      <trkpt lat="44.72107" lon="3.83153">
        <ele>977</ele>
        <time>2009-07-11T12:49:10Z</time>
      </trkpt>
      <trkpt lat="44.72084" lon="3.83111">
        <ele>978</ele>
        <time>2009-07-11T12:49:20Z</time>
      </trkpt>
      <trkpt lat="44.72028" lon="3.83011">
        <ele>980</ele>
        <time>2009-07-11T12:49:43Z</time>
      </trkpt>
      <trkpt lat="44.71976" lon="3.82921">
        <ele>983</ele>
        <time>2009-07-11T12:50:03Z</time>
      </trkpt>
      <trkpt lat="44.71915" lon="3.8282">
        <ele>985</ele>
        <time>2009-07-11T12:50:26Z</time>
      </trkpt>
      <trkpt lat="44.71867" lon="3.82734">
        <ele>989</ele>
        <time>2009-07-11T12:50:46Z</time>
      </trkpt>
      <trkpt lat="44.71866" lon="3.8273">
        <ele>989</ele>
        <time>2009-07-11T12:50:47Z</time>
      </trkpt>
      <trkpt lat="44.71861" lon="3.827">
        <ele>991</ele>
        <time>2009-07-11T12:50:54Z</time>
      </trkpt>
      <trkpt lat="44.71867" lon="3.82628">
        <ele>992</ele>
        <time>2009-07-11T12:51:12Z</time>
      </trkpt>
      <trkpt lat="44.71867" lon="3.82624">
        <ele>993</ele>
        <time>2009-07-11T12:51:13Z</time>
      </trkpt>
      <trkpt lat="44.7188" lon="3.82554">
        <ele>996</ele>
        <time>2009-07-11T12:51:31Z</time>
      </trkpt>
      <trkpt lat="44.71905" lon="3.82469">
        <ele>998</ele>
        <time>2009-07-11T12:51:54Z</time>
      </trkpt>
      <trkpt lat="44.71925" lon="3.82399">
        <ele>1001</ele>
        <time>2009-07-11T12:52:13Z</time>
      </trkpt>
      <trkpt lat="44.7195" lon="3.82371">
        <ele>997</ele>
        <time>2009-07-11T12:52:23Z</time>
      </trkpt>
      <trkpt lat="44.71955" lon="3.82368">
        <ele>997</ele>
        <time>2009-07-11T12:52:24Z</time>
      </trkpt>
      <trkpt lat="44.7196" lon="3.82365">
        <ele>997</ele>
        <time>2009-07-11T12:52:25Z</time>
      </trkpt>
      <trkpt lat="44.7199" lon="3.82327">
        <ele>996</ele>
        <time>2009-07-11T12:52:32Z</time>
      </trkpt>
      <trkpt lat="44.71998" lon="3.82314">
        <ele>996</ele>
        <time>2009-07-11T12:52:34Z</time>
      </trkpt>
      <trkpt lat="44.72039" lon="3.82309">
        <ele>996</ele>
        <time>2009-07-11T12:52:43Z</time>
      </trkpt>
      <trkpt lat="44.72041" lon="3.82321">
        <ele>995</ele>
        <time>2009-07-11T12:52:46Z</time>
      </trkpt>
      <trkpt lat="44.72047" lon="3.82357">
        <ele>993</ele>
        <time>2009-07-11T12:52:57Z</time>
      </trkpt>
      <trkpt lat="44.72047" lon="3.82359">
        <ele>992</ele>
        <time>2009-07-11T12:53:19Z</time>
      </trkpt>
      <trkpt lat="44.72047" lon="3.82357">
        <ele>992</ele>
        <time>2009-07-11T12:53:21Z</time>
      </trkpt>
      <trkpt lat="44.72044" lon="3.82345">
        <ele>993</ele>
        <time>2009-07-11T12:53:29Z</time>
      </trkpt>
      <trkpt lat="44.72041" lon="3.82334">
        <ele>994</ele>
        <time>2009-07-11T12:53:37Z</time>
      </trkpt>
      <trkpt lat="44.7204" lon="3.82322">
        <ele>995</ele>
        <time>2009-07-11T12:53:57Z</time>
      </trkpt>
      <trkpt lat="44.72041" lon="3.82319">
        <ele>995</ele>
        <time>2009-07-11T12:54:12Z</time>
      </trkpt>
      <trkpt lat="44.72046" lon="3.82353">
        <ele>992</ele>
        <time>2009-07-11T12:54:21Z</time>
      </trkpt>
      <trkpt lat="44.72068" lon="3.82378">
        <ele>989</ele>
        <time>2009-07-11T12:54:29Z</time>
      </trkpt>
      <trkpt lat="44.72084" lon="3.82401">
        <ele>986</ele>
        <time>2009-07-11T12:54:34Z</time>
      </trkpt>
      <trkpt lat="44.72087" lon="3.82408">
        <ele>985</ele>
        <time>2009-07-11T12:54:35Z</time>
      </trkpt>
      <trkpt lat="44.72096" lon="3.82428">
        <ele>985</ele>
        <time>2009-07-11T12:54:38Z</time>
      </trkpt>
      <trkpt lat="44.72116" lon="3.82441">
        <ele>982</ele>
        <time>2009-07-11T12:54:42Z</time>
      </trkpt>
      <trkpt lat="44.72158" lon="3.82446">
        <ele>978</ele>
        <time>2009-07-11T12:54:48Z</time>
      </trkpt>
      <trkpt lat="44.72166" lon="3.82448">
        <ele>978</ele>
        <time>2009-07-11T12:54:49Z</time>
      </trkpt>
      <trkpt lat="44.72244" lon="3.82447">
        <ele>977</ele>
        <time>2009-07-11T12:55:00Z</time>
      </trkpt>
      <trkpt lat="44.72265" lon="3.82445">
        <ele>976</ele>
        <time>2009-07-11T12:55:03Z</time>
      </trkpt>
      <trkpt lat="44.7231" lon="3.82435">
        <ele>973</ele>
        <time>2009-07-11T12:55:09Z</time>
      </trkpt>
      <trkpt lat="44.72332" lon="3.8243">
        <ele>972</ele>
        <time>2009-07-11T12:55:12Z</time>
      </trkpt>
      <trkpt lat="44.72354" lon="3.82424">
        <ele>971</ele>
        <time>2009-07-11T12:55:15Z</time>
      </trkpt>
      <trkpt lat="44.72369" lon="3.82426">
        <ele>970</ele>
        <time>2009-07-11T12:55:17Z</time>
      </trkpt>
      <trkpt lat="44.72399" lon="3.8244">
        <ele>968</ele>
        <time>2009-07-11T12:55:21Z</time>
      </trkpt>
      <trkpt lat="44.72425" lon="3.82406">
        <ele>968</ele>
        <time>2009-07-11T12:55:27Z</time>
      </trkpt>
      <trkpt lat="44.72441" lon="3.82394">
        <ele>966</ele>
        <time>2009-07-11T12:55:30Z</time>
      </trkpt>
      <trkpt lat="44.72458" lon="3.82384">
        <ele>966</ele>
        <time>2009-07-11T12:55:33Z</time>
      </trkpt>
      <trkpt lat="44.7247" lon="3.82373">
        <ele>964</ele>
        <time>2009-07-11T12:55:35Z</time>
      </trkpt>
      <trkpt lat="44.72495" lon="3.82366">
        <ele>962</ele>
        <time>2009-07-11T12:55:39Z</time>
      </trkpt>
      <trkpt lat="44.72528" lon="3.82366">
        <ele>961</ele>
        <time>2009-07-11T12:55:47Z</time>
      </trkpt>
      <trkpt lat="44.72531" lon="3.82341">
        <ele>961</ele>
        <time>2009-07-11T12:55:54Z</time>
      </trkpt>
      <trkpt lat="44.72533" lon="3.82274">
        <ele>962</ele>
        <time>2009-07-11T12:56:08Z</time>
      </trkpt>
      <trkpt lat="44.72539" lon="3.82178">
        <ele>963</ele>
        <time>2009-07-11T12:56:25Z</time>
      </trkpt>
      <trkpt lat="44.72544" lon="3.82105">
        <ele>965</ele>
        <time>2009-07-11T12:56:38Z</time>
      </trkpt>
      <trkpt lat="44.72545" lon="3.82073">
        <ele>965</ele>
        <time>2009-07-11T12:56:43Z</time>
      </trkpt>
      <trkpt lat="44.72546" lon="3.82056">
        <ele>965</ele>
        <time>2009-07-11T12:56:46Z</time>
      </trkpt>
      <trkpt lat="44.72548" lon="3.82034">
        <ele>964</ele>
        <time>2009-07-11T12:56:50Z</time>
      </trkpt>
      <trkpt lat="44.72546" lon="3.81983">
        <ele>961</ele>
        <time>2009-07-11T12:56:58Z</time>
      </trkpt>
      <trkpt lat="44.72544" lon="3.81966">
        <ele>959</ele>
        <time>2009-07-11T12:57:00Z</time>
      </trkpt>
      <trkpt lat="44.72536" lon="3.81918">
        <ele>955</ele>
        <time>2009-07-11T12:57:06Z</time>
      </trkpt>
      <trkpt lat="44.72549" lon="3.81908">
        <ele>953</ele>
        <time>2009-07-11T12:57:09Z</time>
      </trkpt>
      <trkpt lat="44.72573" lon="3.81895">
        <ele>955</ele>
        <time>2009-07-11T12:57:15Z</time>
      </trkpt>
      <trkpt lat="44.7258" lon="3.8189">
        <ele>955</ele>
        <time>2009-07-11T12:57:17Z</time>
      </trkpt>
      <trkpt lat="44.72612" lon="3.81856">
        <ele>956</ele>
        <time>2009-07-11T12:57:27Z</time>
      </trkpt>
      <trkpt lat="44.7261" lon="3.8181">
        <ele>955</ele>
        <time>2009-07-11T12:57:35Z</time>
      </trkpt>
      <trkpt lat="44.7259" lon="3.81765">
        <ele>958</ele>
        <time>2009-07-11T12:57:45Z</time>
      </trkpt>
      <trkpt lat="44.72586" lon="3.81736">
        <ele>958</ele>
        <time>2009-07-11T12:57:50Z</time>
      </trkpt>
      <trkpt lat="44.72585" lon="3.81712">
        <ele>957</ele>
        <time>2009-07-11T12:57:54Z</time>
      </trkpt>
      <trkpt lat="44.72597" lon="3.81677">
        <ele>960</ele>
        <time>2009-07-11T12:58:03Z</time>
      </trkpt>
      <trkpt lat="44.72626" lon="3.81692">
        <ele>963</ele>
        <time>2009-07-11T12:58:14Z</time>
      </trkpt>
      <trkpt lat="44.72643" lon="3.81711">
        <ele>961</ele>
        <time>2009-07-11T12:58:20Z</time>
      </trkpt>
      <trkpt lat="44.72667" lon="3.81729">
        <ele>958</ele>
        <time>2009-07-11T12:58:25Z</time>
      </trkpt>
      <trkpt lat="44.72685" lon="3.81735">
        <ele>957</ele>
        <time>2009-07-11T12:58:28Z</time>
      </trkpt>
      <trkpt lat="44.72708" lon="3.81734">
        <ele>956</ele>
        <time>2009-07-11T12:58:32Z</time>
      </trkpt>
      <trkpt lat="44.72729" lon="3.81718">
        <ele>957</ele>
        <time>2009-07-11T12:58:38Z</time>
      </trkpt>
      <trkpt lat="44.72762" lon="3.81672">
        <ele>957</ele>
        <time>2009-07-11T12:58:50Z</time>
      </trkpt>
      <trkpt lat="44.72782" lon="3.81621">
        <ele>957</ele>
        <time>2009-07-11T12:59:01Z</time>
      </trkpt>
      <trkpt lat="44.72787" lon="3.81601">
        <ele>957</ele>
        <time>2009-07-11T12:59:05Z</time>
      </trkpt>
      <trkpt lat="44.72789" lon="3.81578">
        <ele>956</ele>
        <time>2009-07-11T12:59:09Z</time>
      </trkpt>
      <trkpt lat="44.72788" lon="3.81551">
        <ele>954</ele>
        <time>2009-07-11T12:59:13Z</time>
      </trkpt>
      <trkpt lat="44.72775" lon="3.81528">
        <ele>954</ele>
        <time>2009-07-11T12:59:17Z</time>
      </trkpt>
      <trkpt lat="44.72755" lon="3.81507">
        <ele>955</ele>
        <time>2009-07-11T12:59:23Z</time>
      </trkpt>
      <trkpt lat="44.72753" lon="3.81439">
        <ele>955</ele>
        <time>2009-07-11T12:59:36Z</time>
      </trkpt>
      <trkpt lat="44.72759" lon="3.81398">
        <ele>954</ele>
        <time>2009-07-11T12:59:45Z</time>
      </trkpt>
      <trkpt lat="44.72783" lon="3.81378">
        <ele>955</ele>
        <time>2009-07-11T12:59:55Z</time>
      </trkpt>
      <trkpt lat="44.72829" lon="3.81331">
        <ele>954</ele>
        <time>2009-07-11T13:00:10Z</time>
      </trkpt>
      <trkpt lat="44.72892" lon="3.81256">
        <ele>953</ele>
        <time>2009-07-11T13:00:30Z</time>
      </trkpt>
      <trkpt lat="44.72901" lon="3.81244">
        <ele>953</ele>
        <time>2009-07-11T13:00:33Z</time>
      </trkpt>
      <trkpt lat="44.72898" lon="3.81215">
        <ele>954</ele>
        <time>2009-07-11T13:00:41Z</time>
      </trkpt>
      <trkpt lat="44.72865" lon="3.81213">
        <ele>954</ele>
        <time>2009-07-11T13:00:49Z</time>
      </trkpt>
      <trkpt lat="44.72844" lon="3.81217">
        <ele>954</ele>
        <time>2009-07-11T13:00:54Z</time>
      </trkpt>
      <trkpt lat="44.72816" lon="3.81222">
        <ele>954</ele>
        <time>2009-07-11T13:01:01Z</time>
      </trkpt>
      <trkpt lat="44.72783" lon="3.81226">
        <ele>955</ele>
        <time>2009-07-11T13:01:10Z</time>
      </trkpt>
      <trkpt lat="44.7277" lon="3.81229">
        <ele>956</ele>
        <time>2009-07-11T13:01:14Z</time>
      </trkpt>
      <trkpt lat="44.72744" lon="3.81222">
        <ele>955</ele>
        <time>2009-07-11T13:01:25Z</time>
      </trkpt>
      <trkpt lat="44.72738" lon="3.81223">
        <ele>955</ele>
        <time>2009-07-11T13:01:49Z</time>
      </trkpt>
      <trkpt lat="44.72731" lon="3.81221">
        <ele>954</ele>
        <time>2009-07-11T13:01:59Z</time>
      </trkpt>
      <trkpt lat="44.72714" lon="3.81216">
        <ele>955</ele>
        <time>2009-07-11T13:02:06Z</time>
      </trkpt>
      <trkpt lat="44.72689" lon="3.81208">
        <ele>955</ele>
        <time>2009-07-11T13:02:16Z</time>
      </trkpt>
      <trkpt lat="44.72668" lon="3.81191">
        <ele>957</ele>
        <time>2009-07-11T13:02:25Z</time>
      </trkpt>
      <trkpt lat="44.72665" lon="3.81183">
        <ele>956</ele>
        <time>2009-07-11T13:02:27Z</time>
      </trkpt>
      <trkpt lat="44.72655" lon="3.81172">
        <ele>957</ele>
        <time>2009-07-11T13:02:31Z</time>
      </trkpt>
      <trkpt lat="44.72638" lon="3.8115">
        <ele>956</ele>
        <time>2009-07-11T13:02:37Z</time>
      </trkpt>
      <trkpt lat="44.72605" lon="3.81164">
        <ele>956</ele>
        <time>2009-07-11T13:02:49Z</time>
      </trkpt>
      <trkpt lat="44.72585" lon="3.81166">
        <ele>953</ele>
        <time>2009-07-11T13:02:55Z</time>
      </trkpt>
      <trkpt lat="44.72582" lon="3.81165">
        <ele>954</ele>
        <time>2009-07-11T13:02:56Z</time>
      </trkpt>
      <trkpt lat="44.72578" lon="3.81165">
        <ele>954</ele>
        <time>2009-07-11T13:02:57Z</time>
      </trkpt>
      <trkpt lat="44.7255" lon="3.81146">
        <ele>954</ele>
        <time>2009-07-11T13:03:07Z</time>
      </trkpt>
      <trkpt lat="44.72527" lon="3.81119">
        <ele>955</ele>
        <time>2009-07-11T13:03:19Z</time>
      </trkpt>
      <trkpt lat="44.7252" lon="3.8111">
        <ele>956</ele>
        <time>2009-07-11T13:03:33Z</time>
      </trkpt>
      <trkpt lat="44.72518" lon="3.81108">
        <ele>954</ele>
        <time>2009-07-11T13:03:36Z</time>
      </trkpt>
      <trkpt lat="44.72515" lon="3.81104">
        <ele>955</ele>
        <time>2009-07-11T13:03:40Z</time>
      </trkpt>
      <trkpt lat="44.72508" lon="3.81099">
        <ele>958</ele>
        <time>2009-07-11T13:03:51Z</time>
      </trkpt>
      <trkpt lat="44.72506" lon="3.81091">
        <ele>958</ele>
        <time>2009-07-11T13:04:08Z</time>
      </trkpt>
      <trkpt lat="44.72506" lon="3.81086">
        <ele>957</ele>
        <time>2009-07-11T13:04:18Z</time>
      </trkpt>
      <trkpt lat="44.72499" lon="3.81075">
        <ele>957</ele>
        <time>2009-07-11T13:04:28Z</time>
      </trkpt>
      <trkpt lat="44.72492" lon="3.81076">
        <ele>957</ele>
        <time>2009-07-11T13:04:39Z</time>
      </trkpt>
      <trkpt lat="44.72483" lon="3.81057">
        <ele>957</ele>
        <time>2009-07-11T13:04:47Z</time>
      </trkpt>
      <trkpt lat="44.72483" lon="3.81039">
        <ele>956</ele>
        <time>2009-07-11T13:05:04Z</time>
      </trkpt>
      <trkpt lat="44.72485" lon="3.8104">
        <ele>957</ele>
        <time>2009-07-11T13:05:07Z</time>
      </trkpt>
      <trkpt lat="44.72494" lon="3.81046">
        <ele>957</ele>
        <time>2009-07-11T13:05:18Z</time>
      </trkpt>
      <trkpt lat="44.72506" lon="3.81049">
        <ele>956</ele>
        <time>2009-07-11T13:05:31Z</time>
      </trkpt>
      <trkpt lat="44.72508" lon="3.8105">
        <ele>956</ele>
        <time>2009-07-11T13:05:35Z</time>
      </trkpt>
      <trkpt lat="44.72517" lon="3.81051">
        <ele>956</ele>
        <time>2009-07-11T13:05:41Z</time>
      </trkpt>
      <trkpt lat="44.72525" lon="3.81049">
        <ele>956</ele>
        <time>2009-07-11T13:05:52Z</time>
      </trkpt>
      <trkpt lat="44.72536" lon="3.81047">
        <ele>956</ele>
        <time>2009-07-11T13:06:06Z</time>
      </trkpt>
      <trkpt lat="44.72544" lon="3.81045">
        <ele>955</ele>
        <time>2009-07-11T13:06:19Z</time>
      </trkpt>
      <trkpt lat="44.72554" lon="3.81041">
        <ele>954</ele>
        <time>2009-07-11T13:06:32Z</time>
      </trkpt>
      <trkpt lat="44.72561" lon="3.81039">
        <ele>955</ele>
        <time>2009-07-11T13:06:43Z</time>
      </trkpt>
      <trkpt lat="44.72571" lon="3.81033">
        <ele>957</ele>
        <time>2009-07-11T13:06:56Z</time>
      </trkpt>
      <trkpt lat="44.72573" lon="3.81032">
        <ele>958</ele>
        <time>2009-07-11T13:06:58Z</time>
      </trkpt>
      <trkpt lat="44.72584" lon="3.81029">
        <ele>959</ele>
        <time>2009-07-11T13:07:07Z</time>
      </trkpt>
      <trkpt lat="44.72587" lon="3.81026">
        <ele>960</ele>
        <time>2009-07-11T13:07:10Z</time>
      </trkpt>
      <trkpt lat="44.72594" lon="3.81021">
        <ele>961</ele>
        <time>2009-07-11T13:07:16Z</time>
      </trkpt>
      <trkpt lat="44.72602" lon="3.81011">
        <ele>963</ele>
        <time>2009-07-11T13:07:24Z</time>
      </trkpt>
      <trkpt lat="44.72608" lon="3.81007">
        <ele>965</ele>
        <time>2009-07-11T13:07:37Z</time>
      </trkpt>
      <trkpt lat="44.72614" lon="3.81005">
        <ele>966</ele>
        <time>2009-07-11T13:07:50Z</time>
      </trkpt>
      <trkpt lat="44.72621" lon="3.81003">
        <ele>968</ele>
        <time>2009-07-11T13:08:02Z</time>
      </trkpt>
      <trkpt lat="44.7263" lon="3.80999">
        <ele>968</ele>
        <time>2009-07-11T13:08:16Z</time>
      </trkpt>
      <trkpt lat="44.72635" lon="3.80999">
        <ele>968</ele>
        <time>2009-07-11T13:08:25Z</time>
      </trkpt>
      <trkpt lat="44.72645" lon="3.80996">
        <ele>968</ele>
        <time>2009-07-11T13:08:33Z</time>
      </trkpt>
      <trkpt lat="44.72651" lon="3.80999">
        <ele>966</ele>
        <time>2009-07-11T13:08:44Z</time>
      </trkpt>
      <trkpt lat="44.72662" lon="3.81006">
        <ele>965</ele>
        <time>2009-07-11T13:08:59Z</time>
      </trkpt>
      <trkpt lat="44.72669" lon="3.81007">
        <ele>963</ele>
        <time>2009-07-11T13:09:10Z</time>
      </trkpt>
      <trkpt lat="44.72674" lon="3.81009">
        <ele>960</ele>
        <time>2009-07-11T13:09:21Z</time>
      </trkpt>
      <trkpt lat="44.72674" lon="3.81009">
        <ele>960</ele>
        <time>2009-07-11T13:09:22Z</time>
      </trkpt>
      <trkpt lat="44.72683" lon="3.81012">
        <ele>957</ele>
        <time>2009-07-11T13:09:35Z</time>
      </trkpt>
      <trkpt lat="44.72688" lon="3.81012">
        <ele>955</ele>
        <time>2009-07-11T13:09:45Z</time>
      </trkpt>
      <trkpt lat="44.72707" lon="3.80995">
        <ele>956</ele>
        <time>2009-07-11T13:09:59Z</time>
      </trkpt>
      <trkpt lat="44.72733" lon="3.80984">
        <ele>954</ele>
        <time>2009-07-11T13:10:10Z</time>
      </trkpt>
      <trkpt lat="44.7276" lon="3.80962">
        <ele>955</ele>
        <time>2009-07-11T13:10:22Z</time>
      </trkpt>
      <trkpt lat="44.72777" lon="3.80945">
        <ele>955</ele>
        <time>2009-07-11T13:10:31Z</time>
      </trkpt>
      <trkpt lat="44.728" lon="3.80932">
        <ele>954</ele>
        <time>2009-07-11T13:10:41Z</time>
      </trkpt>
      <trkpt lat="44.72829" lon="3.80915">
        <ele>955</ele>
        <time>2009-07-11T13:10:53Z</time>
      </trkpt>
      <trkpt lat="44.72839" lon="3.80903">
        <ele>955</ele>
        <time>2009-07-11T13:10:58Z</time>
      </trkpt>
      <trkpt lat="44.7285" lon="3.80898">
        <ele>956</ele>
        <time>2009-07-11T13:11:03Z</time>
      </trkpt>
      <trkpt lat="44.72877" lon="3.80879">
        <ele>955</ele>
        <time>2009-07-11T13:11:14Z</time>
      </trkpt>
      <trkpt lat="44.72879" lon="3.80878">
        <ele>956</ele>
        <time>2009-07-11T13:11:15Z</time>
      </trkpt>
      <trkpt lat="44.729" lon="3.80873">
        <ele>953</ele>
        <time>2009-07-11T13:11:22Z</time>
      </trkpt>
      <trkpt lat="44.72934" lon="3.80853">
        <ele>953</ele>
        <time>2009-07-11T13:11:35Z</time>
      </trkpt>
      <trkpt lat="44.72968" lon="3.80842">
        <ele>952</ele>
        <time>2009-07-11T13:11:48Z</time>
      </trkpt>
      <trkpt lat="44.72979" lon="3.80834">
        <ele>953</ele>
        <time>2009-07-11T13:11:59Z</time>
      </trkpt>
      <trkpt lat="44.72981" lon="3.80835">
        <ele>953</ele>
        <time>2009-07-11T13:12:33Z</time>
      </trkpt>
      <trkpt lat="44.73001" lon="3.80817">
        <ele>953</ele>
        <time>2009-07-11T13:12:47Z</time>
      </trkpt>
      <trkpt lat="44.73008" lon="3.80805">
        <ele>953</ele>
        <time>2009-07-11T13:12:52Z</time>
      </trkpt>
      <trkpt lat="44.73007" lon="3.80795">
        <ele>954</ele>
        <time>2009-07-11T13:13:11Z</time>
      </trkpt>
      <trkpt lat="44.73007" lon="3.80796">
        <ele>953</ele>
        <time>2009-07-11T13:13:32Z</time>
      </trkpt>
      <trkpt lat="44.73009" lon="3.80804">
        <ele>953</ele>
        <time>2009-07-11T13:13:35Z</time>
      </trkpt>
      <trkpt lat="44.73004" lon="3.80813">
        <ele>953</ele>
        <time>2009-07-11T13:13:39Z</time>
      </trkpt>
      <trkpt lat="44.72994" lon="3.80822">
        <ele>953</ele>
        <time>2009-07-11T13:13:51Z</time>
      </trkpt>
      <trkpt lat="44.73" lon="3.80815">
        <ele>953</ele>
        <time>2009-07-11T13:13:56Z</time>
      </trkpt>
      <trkpt lat="44.73003" lon="3.80784">
        <ele>953</ele>
        <time>2009-07-11T13:14:06Z</time>
      </trkpt>
      <trkpt lat="44.72963" lon="3.80757">
        <ele>954</ele>
        <time>2009-07-11T13:14:21Z</time>
      </trkpt>
      <trkpt lat="44.72937" lon="3.80748">
        <ele>953</ele>
        <time>2009-07-11T13:14:30Z</time>
      </trkpt>
      <trkpt lat="44.72924" lon="3.80747">
        <ele>953</ele>
        <time>2009-07-11T13:14:35Z</time>
      </trkpt>
      <trkpt lat="44.72894" lon="3.80721">
        <ele>952</ele>
        <time>2009-07-11T13:14:46Z</time>
      </trkpt>
      <trkpt lat="44.72872" lon="3.80681">
        <ele>952</ele>
        <time>2009-07-11T13:14:57Z</time>
      </trkpt>
      <trkpt lat="44.72884" lon="3.80653">
        <ele>954</ele>
        <time>2009-07-11T13:15:06Z</time>
      </trkpt>
      <trkpt lat="44.72912" lon="3.80644">
        <ele>954</ele>
        <time>2009-07-11T13:15:18Z</time>
      </trkpt>
      <trkpt lat="44.72936" lon="3.80641">
        <ele>954</ele>
        <time>2009-07-11T13:15:26Z</time>
      </trkpt>
      <trkpt lat="44.72949" lon="3.80635">
        <ele>953</ele>
        <time>2009-07-11T13:15:30Z</time>
      </trkpt>
      <trkpt lat="44.72954" lon="3.80621">
        <ele>954</ele>
        <time>2009-07-11T13:15:34Z</time>
      </trkpt>
      <trkpt lat="44.72946" lon="3.80594">
        <ele>954</ele>
        <time>2009-07-11T13:15:41Z</time>
      </trkpt>
      <trkpt lat="44.72931" lon="3.80574">
        <ele>953</ele>
        <time>2009-07-11T13:15:48Z</time>
      </trkpt>
      <trkpt lat="44.72924" lon="3.80566">
        <ele>952</ele>
        <time>2009-07-11T13:15:50Z</time>
      </trkpt>
      <trkpt lat="44.72914" lon="3.8056">
        <ele>954</ele>
        <time>2009-07-11T13:15:57Z</time>
      </trkpt>
      <trkpt lat="44.72905" lon="3.80551">
        <ele>956</ele>
        <time>2009-07-11T13:16:04Z</time>
      </trkpt>
      <trkpt lat="44.72904" lon="3.80549">
        <ele>955</ele>
        <time>2009-07-11T13:16:07Z</time>
      </trkpt>
      <trkpt lat="44.72901" lon="3.80532">
        <ele>953</ele>
        <time>2009-07-11T13:16:11Z</time>
      </trkpt>
      <trkpt lat="44.72895" lon="3.80522">
        <ele>954</ele>
        <time>2009-07-11T13:16:14Z</time>
      </trkpt>
      <trkpt lat="44.72892" lon="3.80506">
        <ele>952</ele>
        <time>2009-07-11T13:16:18Z</time>
      </trkpt>
      <trkpt lat="44.72884" lon="3.80487">
        <ele>953</ele>
        <time>2009-07-11T13:16:23Z</time>
      </trkpt>
      <trkpt lat="44.72876" lon="3.80447">
        <ele>954</ele>
        <time>2009-07-11T13:16:34Z</time>
      </trkpt>
      <trkpt lat="44.72875" lon="3.80403">
        <ele>952</ele>
        <time>2009-07-11T13:16:45Z</time>
      </trkpt>
      <trkpt lat="44.72872" lon="3.80378">
        <ele>956</ele>
        <time>2009-07-11T13:16:54Z</time>
      </trkpt>
      <trkpt lat="44.72869" lon="3.80362">
        <ele>959</ele>
        <time>2009-07-11T13:17:08Z</time>
      </trkpt>
      <trkpt lat="44.72869" lon="3.80351">
        <ele>961</ele>
        <time>2009-07-11T13:17:23Z</time>
      </trkpt>
      <trkpt lat="44.72871" lon="3.80345">
        <ele>961</ele>
        <time>2009-07-11T13:17:36Z</time>
      </trkpt>
      <trkpt lat="44.72873" lon="3.80342">
        <ele>959</ele>
        <time>2009-07-11T13:17:44Z</time>
      </trkpt>
      <trkpt lat="44.72886" lon="3.80328">
        <ele>958</ele>
        <time>2009-07-11T13:17:58Z</time>
      </trkpt>
      <trkpt lat="44.72894" lon="3.80329">
        <ele>961</ele>
        <time>2009-07-11T13:18:10Z</time>
      </trkpt>
      <trkpt lat="44.72904" lon="3.80332">
        <ele>963</ele>
        <time>2009-07-11T13:18:25Z</time>
      </trkpt>
      <trkpt lat="44.72913" lon="3.80337">
        <ele>964</ele>
        <time>2009-07-11T13:18:37Z</time>
      </trkpt>
      <trkpt lat="44.72921" lon="3.80346">
        <ele>964</ele>
        <time>2009-07-11T13:18:50Z</time>
      </trkpt>
      <trkpt lat="44.7293" lon="3.8036">
        <ele>961</ele>
        <time>2009-07-11T13:18:57Z</time>
      </trkpt>
      <trkpt lat="44.7294" lon="3.80379">
        <ele>957</ele>
        <time>2009-07-11T13:19:03Z</time>
      </trkpt>
      <trkpt lat="44.72945" lon="3.80387">
        <ele>953</ele>
        <time>2009-07-11T13:19:05Z</time>
      </trkpt>
      <trkpt lat="44.72948" lon="3.80392">
        <ele>953</ele>
        <time>2009-07-11T13:19:06Z</time>
      </trkpt>
      <trkpt lat="44.72972" lon="3.80414">
        <ele>953</ele>
        <time>2009-07-11T13:19:15Z</time>
      </trkpt>
      <trkpt lat="44.72974" lon="3.80418">
        <ele>954</ele>
        <time>2009-07-11T13:19:17Z</time>
      </trkpt>
      <trkpt lat="44.72975" lon="3.80422">
        <ele>954</ele>
        <time>2009-07-11T13:19:19Z</time>
      </trkpt>
      <trkpt lat="44.72979" lon="3.80431">
        <ele>954</ele>
        <time>2009-07-11T13:19:23Z</time>
      </trkpt>
      <trkpt lat="44.72985" lon="3.8044">
        <ele>956</ele>
        <time>2009-07-11T13:19:27Z</time>
      </trkpt>
      <trkpt lat="44.72991" lon="3.80455">
        <ele>956</ele>
        <time>2009-07-11T13:19:32Z</time>
      </trkpt>
      <trkpt lat="44.73002" lon="3.80473">
        <ele>955</ele>
        <time>2009-07-11T13:19:38Z</time>
      </trkpt>
      <trkpt lat="44.73015" lon="3.80485">
        <ele>957</ele>
        <time>2009-07-11T13:19:45Z</time>
      </trkpt>
      <trkpt lat="44.73021" lon="3.80503">
        <ele>954</ele>
        <time>2009-07-11T13:19:51Z</time>
      </trkpt>
      <trkpt lat="44.73022" lon="3.80506">
        <ele>953</ele>
        <time>2009-07-11T13:19:52Z</time>
      </trkpt>
      <trkpt lat="44.7303" lon="3.80514">
        <ele>953</ele>
        <time>2009-07-11T13:19:56Z</time>
      </trkpt>
      <trkpt lat="44.73045" lon="3.80526">
        <ele>953</ele>
        <time>2009-07-11T13:20:03Z</time>
      </trkpt>
      <trkpt lat="44.73058" lon="3.80531">
        <ele>954</ele>
        <time>2009-07-11T13:20:09Z</time>
      </trkpt>
      <trkpt lat="44.73078" lon="3.8055">
        <ele>953</ele>
        <time>2009-07-11T13:20:17Z</time>
      </trkpt>
      <trkpt lat="44.73081" lon="3.80557">
        <ele>954</ele>
        <time>2009-07-11T13:20:19Z</time>
      </trkpt>
      <trkpt lat="44.73088" lon="3.80581">
        <ele>954</ele>
        <time>2009-07-11T13:20:26Z</time>
      </trkpt>
      <trkpt lat="44.73109" lon="3.80609">
        <ele>953</ele>
        <time>2009-07-11T13:20:37Z</time>
      </trkpt>
      <trkpt lat="44.73134" lon="3.80623">
        <ele>953</ele>
        <time>2009-07-11T13:20:48Z</time>
      </trkpt>
      <trkpt lat="44.7315" lon="3.8063">
        <ele>955</ele>
        <time>2009-07-11T13:20:55Z</time>
      </trkpt>
      <trkpt lat="44.73158" lon="3.80645">
        <ele>953</ele>
        <time>2009-07-11T13:21:01Z</time>
      </trkpt>
      <trkpt lat="44.73174" lon="3.80659">
        <ele>953</ele>
        <time>2009-07-11T13:21:08Z</time>
      </trkpt>
      <trkpt lat="44.73185" lon="3.80663">
        <ele>953</ele>
        <time>2009-07-11T13:21:13Z</time>
      </trkpt>
      <trkpt lat="44.73196" lon="3.80666">
        <ele>951</ele>
        <time>2009-07-11T13:21:20Z</time>
      </trkpt>
      <trkpt lat="44.73214" lon="3.80679">
        <ele>953</ele>
        <time>2009-07-11T13:21:30Z</time>
      </trkpt>
      <trkpt lat="44.73218" lon="3.8068">
        <ele>953</ele>
        <time>2009-07-11T13:22:01Z</time>
      </trkpt>
      <trkpt lat="44.73214" lon="3.80671">
        <ele>954</ele>
        <time>2009-07-11T13:24:01Z</time>
      </trkpt>
      <trkpt lat="44.73216" lon="3.80673">
        <ele>954</ele>
        <time>2009-07-11T13:24:41Z</time>
      </trkpt>
      <trkpt lat="44.7322" lon="3.80652">
        <ele>956</ele>
        <time>2009-07-11T13:24:53Z</time>
      </trkpt>
      <trkpt lat="44.73221" lon="3.80618">
        <ele>960</ele>
        <time>2009-07-11T13:25:12Z</time>
      </trkpt>
      <trkpt lat="44.73221" lon="3.80616">
        <ele>960</ele>
        <time>2009-07-11T13:25:13Z</time>
      </trkpt>
      <trkpt lat="44.73216" lon="3.80585">
        <ele>962</ele>
        <time>2009-07-11T13:25:29Z</time>
      </trkpt>
      <trkpt lat="44.73215" lon="3.80579">
        <ele>963</ele>
        <time>2009-07-11T13:25:32Z</time>
      </trkpt>
      <trkpt lat="44.73205" lon="3.80545">
        <ele>968</ele>
        <time>2009-07-11T13:25:46Z</time>
      </trkpt>
      <trkpt lat="44.73204" lon="3.80543">
        <ele>968</ele>
        <time>2009-07-11T13:25:47Z</time>
      </trkpt>
      <trkpt lat="44.73203" lon="3.80541">
        <ele>968</ele>
        <time>2009-07-11T13:25:48Z</time>
      </trkpt>
      <trkpt lat="44.73203" lon="3.80538">
        <ele>969</ele>
        <time>2009-07-11T13:25:50Z</time>
      </trkpt>
      <trkpt lat="44.73201" lon="3.8053">
        <ele>970</ele>
        <time>2009-07-11T13:25:55Z</time>
      </trkpt>
      <trkpt lat="44.73191" lon="3.80496">
        <ele>972</ele>
        <time>2009-07-11T13:26:11Z</time>
      </trkpt>
      <trkpt lat="44.73189" lon="3.80488">
        <ele>973</ele>
        <time>2009-07-11T13:26:15Z</time>
      </trkpt>
      <trkpt lat="44.73181" lon="3.80436">
        <ele>975</ele>
        <time>2009-07-11T13:26:36Z</time>
      </trkpt>
      <trkpt lat="44.73175" lon="3.80393">
        <ele>978</ele>
        <time>2009-07-11T13:26:54Z</time>
      </trkpt>
      <trkpt lat="44.73174" lon="3.80387">
        <ele>979</ele>
        <time>2009-07-11T13:26:57Z</time>
      </trkpt>
      <trkpt lat="44.73165" lon="3.80349">
        <ele>982</ele>
        <time>2009-07-11T13:27:14Z</time>
      </trkpt>
      <trkpt lat="44.73158" lon="3.80316">
        <ele>984</ele>
        <time>2009-07-11T13:27:29Z</time>
      </trkpt>
      <trkpt lat="44.73164" lon="3.80294">
        <ele>986</ele>
        <time>2009-07-11T13:27:39Z</time>
      </trkpt>
      <trkpt lat="44.73163" lon="3.80282">
        <ele>986</ele>
        <time>2009-07-11T13:27:44Z</time>
      </trkpt>
      <trkpt lat="44.73162" lon="3.80264">
        <ele>986</ele>
        <time>2009-07-11T13:27:52Z</time>
      </trkpt>
      <trkpt lat="44.73159" lon="3.80254">
        <ele>988</ele>
        <time>2009-07-11T13:28:00Z</time>
      </trkpt>
      <trkpt lat="44.73161" lon="3.80248">
        <ele>989</ele>
        <time>2009-07-11T13:28:04Z</time>
      </trkpt>
      <trkpt lat="44.73162" lon="3.80243">
        <ele>989</ele>
        <time>2009-07-11T13:28:06Z</time>
      </trkpt>
      <trkpt lat="44.7316" lon="3.80228">
        <ele>990</ele>
        <time>2009-07-11T13:28:12Z</time>
      </trkpt>
      <trkpt lat="44.7316" lon="3.80213">
        <ele>992</ele>
        <time>2009-07-11T13:28:19Z</time>
      </trkpt>
      <trkpt lat="44.73159" lon="3.80206">
        <ele>993</ele>
        <time>2009-07-11T13:28:23Z</time>
      </trkpt>
      <trkpt lat="44.73151" lon="3.80176">
        <ele>996</ele>
        <time>2009-07-11T13:28:39Z</time>
      </trkpt>
      <trkpt lat="44.73149" lon="3.80169">
        <ele>998</ele>
        <time>2009-07-11T13:28:43Z</time>
      </trkpt>
      <trkpt lat="44.73144" lon="3.8015">
        <ele>1001</ele>
        <time>2009-07-11T13:28:55Z</time>
      </trkpt>
      <trkpt lat="44.73144" lon="3.80148">
        <ele>1001</ele>
        <time>2009-07-11T13:28:56Z</time>
      </trkpt>
      <trkpt lat="44.73137" lon="3.80123">
        <ele>1003</ele>
        <time>2009-07-11T13:29:10Z</time>
      </trkpt>
      <trkpt lat="44.73125" lon="3.80103">
        <ele>1006</ele>
        <time>2009-07-11T13:29:23Z</time>
      </trkpt>
      <trkpt lat="44.7313" lon="3.80071">
        <ele>1008</ele>
        <time>2009-07-11T13:29:39Z</time>
      </trkpt>
      <trkpt lat="44.73131" lon="3.80028">
        <ele>1010</ele>
        <time>2009-07-11T13:29:55Z</time>
      </trkpt>
      <trkpt lat="44.73118" lon="3.79979">
        <ele>1012</ele>
        <time>2009-07-11T13:30:11Z</time>
      </trkpt>
      <trkpt lat="44.73113" lon="3.79909">
        <ele>1012</ele>
        <time>2009-07-11T13:30:32Z</time>
      </trkpt>
      <trkpt lat="44.73111" lon="3.79899">
        <ele>1014</ele>
        <time>2009-07-11T13:30:35Z</time>
      </trkpt>
      <trkpt lat="44.73127" lon="3.79863">
        <ele>1015</ele>
        <time>2009-07-11T13:30:47Z</time>
      </trkpt>
      <trkpt lat="44.73128" lon="3.79856">
        <ele>1015</ele>
        <time>2009-07-11T13:30:49Z</time>
      </trkpt>
      <trkpt lat="44.73122" lon="3.79809">
        <ele>1016</ele>
        <time>2009-07-11T13:31:02Z</time>
      </trkpt>
      <trkpt lat="44.73114" lon="3.79789">
        <ele>1017</ele>
        <time>2009-07-11T13:31:08Z</time>
      </trkpt>
      <trkpt lat="44.73107" lon="3.79739">
        <ele>1018</ele>
        <time>2009-07-11T13:31:24Z</time>
      </trkpt>
      <trkpt lat="44.7311" lon="3.79706">
        <ele>1021</ele>
        <time>2009-07-11T13:31:35Z</time>
      </trkpt>
      <trkpt lat="44.73104" lon="3.79663">
        <ele>1022</ele>
        <time>2009-07-11T13:31:49Z</time>
      </trkpt>
      <trkpt lat="44.731" lon="3.79604">
        <ele>1022</ele>
        <time>2009-07-11T13:32:02Z</time>
      </trkpt>
      <trkpt lat="44.7309" lon="3.7953">
        <ele>1021</ele>
        <time>2009-07-11T13:32:16Z</time>
      </trkpt>
      <trkpt lat="44.73081" lon="3.79472">
        <ele>1020</ele>
        <time>2009-07-11T13:32:29Z</time>
      </trkpt>
      <trkpt lat="44.7308" lon="3.79469">
        <ele>1020</ele>
        <time>2009-07-11T13:32:44Z</time>
      </trkpt>
      <trkpt lat="44.73079" lon="3.79465">
        <ele>1020</ele>
        <time>2009-07-11T13:33:03Z</time>
      </trkpt>
      <trkpt lat="44.73075" lon="3.79456">
        <ele>1020</ele>
        <time>2009-07-11T13:34:43Z</time>
      </trkpt>
      <trkpt lat="44.73071" lon="3.79411">
        <ele>1022</ele>
        <time>2009-07-11T13:34:56Z</time>
      </trkpt>
      <trkpt lat="44.73066" lon="3.79396">
        <ele>1020</ele>
        <time>2009-07-11T13:35:00Z</time>
      </trkpt>
      <trkpt lat="44.73068" lon="3.79373">
        <ele>1021</ele>
        <time>2009-07-11T13:35:05Z</time>
      </trkpt>
      <trkpt lat="44.73082" lon="3.79321">
        <ele>1022</ele>
        <time>2009-07-11T13:35:18Z</time>
      </trkpt>
      <trkpt lat="44.73103" lon="3.79246">
        <ele>1024</ele>
        <time>2009-07-11T13:35:37Z</time>
      </trkpt>
      <trkpt lat="44.73116" lon="3.79185">
        <ele>1027</ele>
        <time>2009-07-11T13:35:54Z</time>
      </trkpt>
      <trkpt lat="44.73121" lon="3.79121">
        <ele>1029</ele>
        <time>2009-07-11T13:36:11Z</time>
      </trkpt>
      <trkpt lat="44.73118" lon="3.79081">
        <ele>1032</ele>
        <time>2009-07-11T13:36:24Z</time>
      </trkpt>
      <trkpt lat="44.7312" lon="3.79028">
        <ele>1032</ele>
        <time>2009-07-11T13:36:39Z</time>
      </trkpt>
      <trkpt lat="44.73119" lon="3.79008">
        <ele>1032</ele>
        <time>2009-07-11T13:36:42Z</time>
      </trkpt>
      <trkpt lat="44.73107" lon="3.78951">
        <ele>1032</ele>
        <time>2009-07-11T13:36:54Z</time>
      </trkpt>
      <trkpt lat="44.73107" lon="3.78879">
        <ele>1032</ele>
        <time>2009-07-11T13:37:09Z</time>
      </trkpt>
      <trkpt lat="44.73115" lon="3.78842">
        <ele>1033</ele>
        <time>2009-07-11T13:37:21Z</time>
      </trkpt>
      <trkpt lat="44.73115" lon="3.78843">
        <ele>1035</ele>
        <time>2009-07-11T13:38:17Z</time>
      </trkpt>
      <trkpt lat="44.73114" lon="3.78845">
        <ele>1035</ele>
        <time>2009-07-11T13:38:53Z</time>
      </trkpt>
      <trkpt lat="44.73122" lon="3.78822">
        <ele>1035</ele>
        <time>2009-07-11T13:39:07Z</time>
      </trkpt>
      <trkpt lat="44.73129" lon="3.78794">
        <ele>1035</ele>
        <time>2009-07-11T13:39:14Z</time>
      </trkpt>
      <trkpt lat="44.73138" lon="3.78732">
        <ele>1039</ele>
        <time>2009-07-11T13:39:29Z</time>
      </trkpt>
      <trkpt lat="44.73154" lon="3.78676">
        <ele>1040</ele>
        <time>2009-07-11T13:39:43Z</time>
      </trkpt>
      <trkpt lat="44.73161" lon="3.78632">
        <ele>1040</ele>
        <time>2009-07-11T13:39:53Z</time>
      </trkpt>
      <trkpt lat="44.73165" lon="3.78579">
        <ele>1041</ele>
        <time>2009-07-11T13:40:04Z</time>
      </trkpt>
      <trkpt lat="44.73183" lon="3.78502">
        <ele>1042</ele>
        <time>2009-07-11T13:40:22Z</time>
      </trkpt>
      <trkpt lat="44.7318" lon="3.78432">
        <ele>1043</ele>
        <time>2009-07-11T13:40:38Z</time>
      </trkpt>
      <trkpt lat="44.73182" lon="3.78357">
        <ele>1041</ele>
        <time>2009-07-11T13:40:48Z</time>
      </trkpt>
      <trkpt lat="44.7319" lon="3.78292">
        <ele>1043</ele>
        <time>2009-07-11T13:40:59Z</time>
      </trkpt>
      <trkpt lat="44.73207" lon="3.78221">
        <ele>1044</ele>
        <time>2009-07-11T13:41:13Z</time>
      </trkpt>
      <trkpt lat="44.73209" lon="3.78203">
        <ele>1044</ele>
        <time>2009-07-11T13:41:16Z</time>
      </trkpt>
      <trkpt lat="44.73209" lon="3.78186">
        <ele>1044</ele>
        <time>2009-07-11T13:41:19Z</time>
      </trkpt>
      <trkpt lat="44.73215" lon="3.7812">
        <ele>1045</ele>
        <time>2009-07-11T13:41:33Z</time>
      </trkpt>
      <trkpt lat="44.73224" lon="3.7811">
        <ele>1046</ele>
        <time>2009-07-11T13:41:39Z</time>
      </trkpt>
      <trkpt lat="44.73225" lon="3.78095">
        <ele>1047</ele>
        <time>2009-07-11T13:41:47Z</time>
      </trkpt>
      <trkpt lat="44.73226" lon="3.7809">
        <ele>1048</ele>
        <time>2009-07-11T13:41:49Z</time>
      </trkpt>
      <trkpt lat="44.73247" lon="3.78028">
        <ele>1051</ele>
        <time>2009-07-11T13:42:07Z</time>
      </trkpt>
      <trkpt lat="44.73257" lon="3.77976">
        <ele>1051</ele>
        <time>2009-07-11T13:42:20Z</time>
      </trkpt>
      <trkpt lat="44.73265" lon="3.77903">
        <ele>1051</ele>
        <time>2009-07-11T13:42:35Z</time>
      </trkpt>
      <trkpt lat="44.73281" lon="3.77834">
        <ele>1051</ele>
        <time>2009-07-11T13:42:49Z</time>
      </trkpt>
      <trkpt lat="44.73302" lon="3.77778">
        <ele>1049</ele>
        <time>2009-07-11T13:43:01Z</time>
      </trkpt>
      <trkpt lat="44.73323" lon="3.77716">
        <ele>1046</ele>
        <time>2009-07-11T13:43:13Z</time>
      </trkpt>
      <trkpt lat="44.73343" lon="3.77661">
        <ele>1046</ele>
        <time>2009-07-11T13:43:25Z</time>
      </trkpt>
      <trkpt lat="44.73367" lon="3.77598">
        <ele>1049</ele>
        <time>2009-07-11T13:43:39Z</time>
      </trkpt>
      <trkpt lat="44.73388" lon="3.77526">
        <ele>1049</ele>
        <time>2009-07-11T13:43:54Z</time>
      </trkpt>
      <trkpt lat="44.7341" lon="3.77462">
        <ele>1048</ele>
        <time>2009-07-11T13:44:09Z</time>
      </trkpt>
      <trkpt lat="44.73426" lon="3.77418">
        <ele>1046</ele>
        <time>2009-07-11T13:44:19Z</time>
      </trkpt>
      <trkpt lat="44.73428" lon="3.77405">
        <ele>1046</ele>
        <time>2009-07-11T13:44:21Z</time>
      </trkpt>
      <trkpt lat="44.73433" lon="3.77382">
        <ele>1043</ele>
        <time>2009-07-11T13:44:24Z</time>
      </trkpt>
      <trkpt lat="44.73441" lon="3.77359">
        <ele>1041</ele>
        <time>2009-07-11T13:44:27Z</time>
      </trkpt>
      <trkpt lat="44.73494" lon="3.77249">
        <ele>1039</ele>
        <time>2009-07-11T13:44:41Z</time>
      </trkpt>
      <trkpt lat="44.73545" lon="3.77169">
        <ele>1038</ele>
        <time>2009-07-11T13:44:56Z</time>
      </trkpt>
      <trkpt lat="44.73564" lon="3.77144">
        <ele>1036</ele>
        <time>2009-07-11T13:45:01Z</time>
      </trkpt>
      <trkpt lat="44.73617" lon="3.77092">
        <ele>1036</ele>
        <time>2009-07-11T13:45:14Z</time>
      </trkpt>
      <trkpt lat="44.73717" lon="3.77012">
        <ele>1034</ele>
        <time>2009-07-11T13:45:35Z</time>
      </trkpt>
      <trkpt lat="44.73785" lon="3.76956">
        <ele>1031</ele>
        <time>2009-07-11T13:45:50Z</time>
      </trkpt>
      <trkpt lat="44.73801" lon="3.76929">
        <ele>1031</ele>
        <time>2009-07-11T13:45:55Z</time>
      </trkpt>
      <trkpt lat="44.73802" lon="3.7692">
        <ele>1031</ele>
        <time>2009-07-11T13:45:57Z</time>
      </trkpt>
      <trkpt lat="44.73798" lon="3.76912">
        <ele>1031</ele>
        <time>2009-07-11T13:46:01Z</time>
      </trkpt>
      <trkpt lat="44.73788" lon="3.76893">
        <ele>1029</ele>
        <time>2009-07-11T13:46:06Z</time>
      </trkpt>
      <trkpt lat="44.73773" lon="3.76848">
        <ele>1025</ele>
        <time>2009-07-11T13:46:16Z</time>
      </trkpt>
      <trkpt lat="44.73773" lon="3.76843">
        <ele>1025</ele>
        <time>2009-07-11T13:46:17Z</time>
      </trkpt>
      <trkpt lat="44.73779" lon="3.76828">
        <ele>1022</ele>
        <time>2009-07-11T13:46:20Z</time>
      </trkpt>
      <trkpt lat="44.73795" lon="3.7681">
        <ele>1025</ele>
        <time>2009-07-11T13:46:26Z</time>
      </trkpt>
      <trkpt lat="44.7381" lon="3.76788">
        <ele>1024</ele>
        <time>2009-07-11T13:46:32Z</time>
      </trkpt>
      <trkpt lat="44.73813" lon="3.76782">
        <ele>1023</ele>
        <time>2009-07-11T13:46:33Z</time>
      </trkpt>
      <trkpt lat="44.7382" lon="3.76753">
        <ele>1019</ele>
        <time>2009-07-11T13:46:37Z</time>
      </trkpt>
      <trkpt lat="44.73831" lon="3.76699">
        <ele>1017</ele>
        <time>2009-07-11T13:46:42Z</time>
      </trkpt>
      <trkpt lat="44.7386" lon="3.76636">
        <ele>1017</ele>
        <time>2009-07-11T13:46:49Z</time>
      </trkpt>
      <trkpt lat="44.73897" lon="3.76593">
        <ele>1013</ele>
        <time>2009-07-11T13:46:55Z</time>
      </trkpt>
      <trkpt lat="44.73967" lon="3.76515">
        <ele>1012</ele>
        <time>2009-07-11T13:47:07Z</time>
      </trkpt>
      <trkpt lat="44.73986" lon="3.76501">
        <ele>1014</ele>
        <time>2009-07-11T13:47:11Z</time>
      </trkpt>
      <trkpt lat="44.7402" lon="3.76461">
        <ele>1017</ele>
        <time>2009-07-11T13:47:23Z</time>
      </trkpt>
      <trkpt lat="44.74075" lon="3.76393">
        <ele>1014</ele>
        <time>2009-07-11T13:47:39Z</time>
      </trkpt>
      <trkpt lat="44.74138" lon="3.76322">
        <ele>1013</ele>
        <time>2009-07-11T13:47:53Z</time>
      </trkpt>
      <trkpt lat="44.74208" lon="3.7625">
        <ele>1015</ele>
        <time>2009-07-11T13:48:12Z</time>
      </trkpt>
      <trkpt lat="44.74225" lon="3.76232">
        <ele>1018</ele>
        <time>2009-07-11T13:48:17Z</time>
      </trkpt>
      <trkpt lat="44.74264" lon="3.76172">
        <ele>1015</ele>
        <time>2009-07-11T13:48:31Z</time>
      </trkpt>
      <trkpt lat="44.74289" lon="3.76143">
        <ele>1013</ele>
        <time>2009-07-11T13:48:38Z</time>
      </trkpt>
      <trkpt lat="44.74319" lon="3.76109">
        <ele>1009</ele>
        <time>2009-07-11T13:48:45Z</time>
      </trkpt>
      <trkpt lat="44.74324" lon="3.76103">
        <ele>1010</ele>
        <time>2009-07-11T13:48:46Z</time>
      </trkpt>
      <trkpt lat="44.74341" lon="3.76084">
        <ele>1007</ele>
        <time>2009-07-11T13:48:49Z</time>
      </trkpt>
      <trkpt lat="44.74354" lon="3.7607">
        <ele>1006</ele>
        <time>2009-07-11T13:48:51Z</time>
      </trkpt>
      <trkpt lat="44.74374" lon="3.76045">
        <ele>1002</ele>
        <time>2009-07-11T13:48:54Z</time>
      </trkpt>
      <trkpt lat="44.74397" lon="3.76016">
        <ele>999</ele>
        <time>2009-07-11T13:48:57Z</time>
      </trkpt>
      <trkpt lat="44.74484" lon="3.75912">
        <ele>998</ele>
        <time>2009-07-11T13:49:09Z</time>
      </trkpt>
      <trkpt lat="44.74497" lon="3.75877">
        <ele>998</ele>
        <time>2009-07-11T13:49:13Z</time>
      </trkpt>
      <trkpt lat="44.74507" lon="3.75781">
        <ele>1001</ele>
        <time>2009-07-11T13:49:28Z</time>
      </trkpt>
      <trkpt lat="44.74508" lon="3.7577">
        <ele>1001</ele>
        <time>2009-07-11T13:49:30Z</time>
      </trkpt>
      <trkpt lat="44.74523" lon="3.75696">
        <ele>1004</ele>
        <time>2009-07-11T13:49:47Z</time>
      </trkpt>
      <trkpt lat="44.74536" lon="3.75631">
        <ele>1004</ele>
        <time>2009-07-11T13:50:03Z</time>
      </trkpt>
      <trkpt lat="44.7455" lon="3.7555">
        <ele>1006</ele>
        <time>2009-07-11T13:50:22Z</time>
      </trkpt>
      <trkpt lat="44.74555" lon="3.75499">
        <ele>1009</ele>
        <time>2009-07-11T13:50:34Z</time>
      </trkpt>
      <trkpt lat="44.74561" lon="3.75433">
        <ele>1013</ele>
        <time>2009-07-11T13:50:50Z</time>
      </trkpt>
      <trkpt lat="44.74577" lon="3.75343">
        <ele>1016</ele>
        <time>2009-07-11T13:51:14Z</time>
      </trkpt>
      <trkpt lat="44.74592" lon="3.75313">
        <ele>1019</ele>
        <time>2009-07-11T13:51:24Z</time>
      </trkpt>
      <trkpt lat="44.74593" lon="3.7531">
        <ele>1019</ele>
        <time>2009-07-11T13:51:25Z</time>
      </trkpt>
      <trkpt lat="44.74617" lon="3.7526">
        <ele>1022</ele>
        <time>2009-07-11T13:51:41Z</time>
      </trkpt>
      <trkpt lat="44.74651" lon="3.75195">
        <ele>1023</ele>
        <time>2009-07-11T13:52:01Z</time>
      </trkpt>
      <trkpt lat="44.74677" lon="3.75116">
        <ele>1024</ele>
        <time>2009-07-11T13:52:20Z</time>
      </trkpt>
      <trkpt lat="44.74684" lon="3.75035">
        <ele>1024</ele>
        <time>2009-07-11T13:52:35Z</time>
      </trkpt>
      <trkpt lat="44.74701" lon="3.74996">
        <ele>1024</ele>
        <time>2009-07-11T13:52:46Z</time>
      </trkpt>
      <trkpt lat="44.74735" lon="3.74974">
        <ele>1023</ele>
        <time>2009-07-11T13:52:55Z</time>
      </trkpt>
      <trkpt lat="44.74747" lon="3.74943">
        <ele>1023</ele>
        <time>2009-07-11T13:53:01Z</time>
      </trkpt>
      <trkpt lat="44.74763" lon="3.74902">
        <ele>1023</ele>
        <time>2009-07-11T13:53:11Z</time>
      </trkpt>
      <trkpt lat="44.74802" lon="3.74855">
        <ele>1025</ele>
        <time>2009-07-11T13:53:26Z</time>
      </trkpt>
      <trkpt lat="44.74831" lon="3.74855">
        <ele>1027</ele>
        <time>2009-07-11T13:53:39Z</time>
      </trkpt>
      <trkpt lat="44.74841" lon="3.74861">
        <ele>1025</ele>
        <time>2009-07-11T13:53:42Z</time>
      </trkpt>
      <trkpt lat="44.74864" lon="3.74891">
        <ele>1024</ele>
        <time>2009-07-11T13:53:50Z</time>
      </trkpt>
      <trkpt lat="44.74868" lon="3.74932">
        <ele>1021</ele>
        <time>2009-07-11T13:53:55Z</time>
      </trkpt>
      <trkpt lat="44.74869" lon="3.74941">
        <ele>1019</ele>
        <time>2009-07-11T13:53:56Z</time>
      </trkpt>
      <trkpt lat="44.74883" lon="3.74967">
        <ele>1016</ele>
        <time>2009-07-11T13:54:00Z</time>
      </trkpt>
      <trkpt lat="44.74889" lon="3.7497">
        <ele>1016</ele>
        <time>2009-07-11T13:54:01Z</time>
      </trkpt>
      <trkpt lat="44.74901" lon="3.74974">
        <ele>1016</ele>
        <time>2009-07-11T13:54:03Z</time>
      </trkpt>
      <trkpt lat="44.74949" lon="3.74973">
        <ele>1015</ele>
        <time>2009-07-11T13:54:10Z</time>
      </trkpt>
      <trkpt lat="44.74975" lon="3.74982">
        <ele>1013</ele>
        <time>2009-07-11T13:54:14Z</time>
      </trkpt>
      <trkpt lat="44.74993" lon="3.74989">
        <ele>1012</ele>
        <time>2009-07-11T13:54:17Z</time>
      </trkpt>
      <trkpt lat="44.75037" lon="3.75029">
        <ele>1011</ele>
        <time>2009-07-11T13:54:26Z</time>
      </trkpt>
      <trkpt lat="44.75067" lon="3.75057">
        <ele>1010</ele>
        <time>2009-07-11T13:54:34Z</time>
      </trkpt>
      <trkpt lat="44.75075" lon="3.75065">
        <ele>1008</ele>
        <time>2009-07-11T13:54:36Z</time>
      </trkpt>
      <trkpt lat="44.75096" lon="3.75078">
        <ele>1006</ele>
        <time>2009-07-11T13:54:40Z</time>
      </trkpt>
      <trkpt lat="44.75107" lon="3.75084">
        <ele>1005</ele>
        <time>2009-07-11T13:54:42Z</time>
      </trkpt>
      <trkpt lat="44.75137" lon="3.75106">
        <ele>1003</ele>
        <time>2009-07-11T13:54:48Z</time>
      </trkpt>
      <trkpt lat="44.75188" lon="3.7515">
        <ele>1004</ele>
        <time>2009-07-11T13:55:00Z</time>
      </trkpt>
      <trkpt lat="44.75212" lon="3.75143">
        <ele>1004</ele>
        <time>2009-07-11T13:55:06Z</time>
      </trkpt>
      <trkpt lat="44.75248" lon="3.7509">
        <ele>1004</ele>
        <time>2009-07-11T13:55:19Z</time>
      </trkpt>
      <trkpt lat="44.75273" lon="3.75081">
        <ele>1003</ele>
        <time>2009-07-11T13:55:25Z</time>
      </trkpt>
      <trkpt lat="44.75331" lon="3.75106">
        <ele>1003</ele>
        <time>2009-07-11T13:55:40Z</time>
      </trkpt>
      <trkpt lat="44.75379" lon="3.75166">
        <ele>1004</ele>
        <time>2009-07-11T13:55:56Z</time>
      </trkpt>
      <trkpt lat="44.75417" lon="3.75202">
        <ele>1007</ele>
        <time>2009-07-11T13:56:09Z</time>
      </trkpt>
      <trkpt lat="44.7546" lon="3.75237">
        <ele>1010</ele>
        <time>2009-07-11T13:56:24Z</time>
      </trkpt>
      <trkpt lat="44.75463" lon="3.75238">
        <ele>1010</ele>
        <time>2009-07-11T13:56:25Z</time>
      </trkpt>
      <trkpt lat="44.75477" lon="3.75247">
        <ele>1012</ele>
        <time>2009-07-11T13:56:30Z</time>
      </trkpt>
      <trkpt lat="44.75527" lon="3.75268">
        <ele>1013</ele>
        <time>2009-07-11T13:56:49Z</time>
      </trkpt>
      <trkpt lat="44.75548" lon="3.75276">
        <ele>1015</ele>
        <time>2009-07-11T13:56:57Z</time>
      </trkpt>
      <trkpt lat="44.75592" lon="3.753">
        <ele>1017</ele>
        <time>2009-07-11T13:57:13Z</time>
      </trkpt>
      <trkpt lat="44.75635" lon="3.75329">
        <ele>1018</ele>
        <time>2009-07-11T13:57:28Z</time>
      </trkpt>
      <trkpt lat="44.75695" lon="3.75358">
        <ele>1019</ele>
        <time>2009-07-11T13:57:48Z</time>
      </trkpt>
      <trkpt lat="44.75743" lon="3.75371">
        <ele>1022</ele>
        <time>2009-07-11T13:58:02Z</time>
      </trkpt>
      <trkpt lat="44.75763" lon="3.75372">
        <ele>1023</ele>
        <time>2009-07-11T13:58:08Z</time>
      </trkpt>
      <trkpt lat="44.75806" lon="3.75382">
        <ele>1025</ele>
        <time>2009-07-11T13:58:23Z</time>
      </trkpt>
      <trkpt lat="44.75808" lon="3.75382">
        <ele>1025</ele>
        <time>2009-07-11T13:58:24Z</time>
      </trkpt>
      <trkpt lat="44.75836" lon="3.75338">
        <ele>1025</ele>
        <time>2009-07-11T13:58:37Z</time>
      </trkpt>
      <trkpt lat="44.75849" lon="3.75306">
        <ele>1024</ele>
        <time>2009-07-11T13:58:48Z</time>
      </trkpt>
      <trkpt lat="44.75858" lon="3.75288">
        <ele>1025</ele>
        <time>2009-07-11T13:59:06Z</time>
      </trkpt>
      <trkpt lat="44.75887" lon="3.7524">
        <ele>1025</ele>
        <time>2009-07-11T13:59:18Z</time>
      </trkpt>
      <trkpt lat="44.75933" lon="3.75187">
        <ele>1027</ele>
        <time>2009-07-11T13:59:34Z</time>
      </trkpt>
      <trkpt lat="44.7596" lon="3.75172">
        <ele>1027</ele>
        <time>2009-07-11T13:59:42Z</time>
      </trkpt>
      <trkpt lat="44.76001" lon="3.75146">
        <ele>1030</ele>
        <time>2009-07-11T13:59:56Z</time>
      </trkpt>
      <trkpt lat="44.76011" lon="3.75136">
        <ele>1032</ele>
        <time>2009-07-11T14:00:00Z</time>
      </trkpt>
      <trkpt lat="44.76054" lon="3.75082">
        <ele>1033</ele>
        <time>2009-07-11T14:00:19Z</time>
      </trkpt>
      <trkpt lat="44.76079" lon="3.75058">
        <ele>1036</ele>
        <time>2009-07-11T14:00:30Z</time>
      </trkpt>
      <trkpt lat="44.76083" lon="3.75053">
        <ele>1037</ele>
        <time>2009-07-11T14:00:32Z</time>
      </trkpt>
      <trkpt lat="44.7611" lon="3.75008">
        <ele>1039</ele>
        <time>2009-07-11T14:00:47Z</time>
      </trkpt>
      <trkpt lat="44.76141" lon="3.74964">
        <ele>1042</ele>
        <time>2009-07-11T14:01:03Z</time>
      </trkpt>
      <trkpt lat="44.76153" lon="3.74949">
        <ele>1044</ele>
        <time>2009-07-11T14:01:09Z</time>
      </trkpt>
      <trkpt lat="44.76183" lon="3.74907">
        <ele>1047</ele>
        <time>2009-07-11T14:01:25Z</time>
      </trkpt>
      <trkpt lat="44.76215" lon="3.74861">
        <ele>1049</ele>
        <time>2009-07-11T14:01:41Z</time>
      </trkpt>
      <trkpt lat="44.76236" lon="3.74824">
        <ele>1052</ele>
        <time>2009-07-11T14:01:53Z</time>
      </trkpt>
      <trkpt lat="44.76263" lon="3.74783">
        <ele>1054</ele>
        <time>2009-07-11T14:02:06Z</time>
      </trkpt>
      <trkpt lat="44.76311" lon="3.7474">
        <ele>1054</ele>
        <time>2009-07-11T14:02:24Z</time>
      </trkpt>
      <trkpt lat="44.7634" lon="3.74687">
        <ele>1055</ele>
        <time>2009-07-11T14:02:38Z</time>
      </trkpt>
      <trkpt lat="44.76368" lon="3.74614">
        <ele>1056</ele>
        <time>2009-07-11T14:02:55Z</time>
      </trkpt>
      <trkpt lat="44.76394" lon="3.7453">
        <ele>1057</ele>
        <time>2009-07-11T14:03:13Z</time>
      </trkpt>
      <trkpt lat="44.76401" lon="3.74503">
        <ele>1057</ele>
        <time>2009-07-11T14:03:18Z</time>
      </trkpt>
      <trkpt lat="44.76433" lon="3.74394">
        <ele>1058</ele>
        <time>2009-07-11T14:03:38Z</time>
      </trkpt>
      <trkpt lat="44.76466" lon="3.74308">
        <ele>1060</ele>
        <time>2009-07-11T14:03:56Z</time>
      </trkpt>
      <trkpt lat="44.76504" lon="3.74221">
        <ele>1060</ele>
        <time>2009-07-11T14:04:15Z</time>
      </trkpt>
      <trkpt lat="44.76506" lon="3.74216">
        <ele>1061</ele>
        <time>2009-07-11T14:04:16Z</time>
      </trkpt>
      <trkpt lat="44.7652" lon="3.74167">
        <ele>1060</ele>
        <time>2009-07-11T14:04:24Z</time>
      </trkpt>
      <trkpt lat="44.76526" lon="3.74143">
        <ele>1060</ele>
        <time>2009-07-11T14:04:28Z</time>
      </trkpt>
      <trkpt lat="44.76531" lon="3.74125">
        <ele>1060</ele>
        <time>2009-07-11T14:04:31Z</time>
      </trkpt>
      <trkpt lat="44.76537" lon="3.74108">
        <ele>1060</ele>
        <time>2009-07-11T14:04:34Z</time>
      </trkpt>
      <trkpt lat="44.7656" lon="3.74013">
        <ele>1061</ele>
        <time>2009-07-11T14:04:51Z</time>
      </trkpt>
      <trkpt lat="44.76569" lon="3.73993">
        <ele>1061</ele>
        <time>2009-07-11T14:04:55Z</time>
      </trkpt>
      <trkpt lat="44.76596" lon="3.73955">
        <ele>1061</ele>
        <time>2009-07-11T14:05:04Z</time>
      </trkpt>
      <trkpt lat="44.76641" lon="3.7389">
        <ele>1061</ele>
        <time>2009-07-11T14:05:17Z</time>
      </trkpt>
      <trkpt lat="44.7665" lon="3.7388">
        <ele>1061</ele>
        <time>2009-07-11T14:05:19Z</time>
      </trkpt>
      <trkpt lat="44.76713" lon="3.73802">
        <ele>1061</ele>
        <time>2009-07-11T14:05:36Z</time>
      </trkpt>
      <trkpt lat="44.76798" lon="3.73739">
        <ele>1062</ele>
        <time>2009-07-11T14:05:56Z</time>
      </trkpt>
      <trkpt lat="44.76836" lon="3.73705">
        <ele>1062</ele>
        <time>2009-07-11T14:06:06Z</time>
      </trkpt>
      <trkpt lat="44.7686" lon="3.73688">
        <ele>1063</ele>
        <time>2009-07-11T14:06:12Z</time>
      </trkpt>
      <trkpt lat="44.7692" lon="3.73665">
        <ele>1063</ele>
        <time>2009-07-11T14:06:26Z</time>
      </trkpt>
      <trkpt lat="44.76949" lon="3.73642">
        <ele>1062</ele>
        <time>2009-07-11T14:06:33Z</time>
      </trkpt>
      <trkpt lat="44.76967" lon="3.73628">
        <ele>1062</ele>
        <time>2009-07-11T14:06:37Z</time>
      </trkpt>
      <trkpt lat="44.76987" lon="3.7362">
        <ele>1061</ele>
        <time>2009-07-11T14:06:41Z</time>
      </trkpt>
      <trkpt lat="44.76999" lon="3.7362">
        <ele>1060</ele>
        <time>2009-07-11T14:06:43Z</time>
      </trkpt>
      <trkpt lat="44.77059" lon="3.73615">
        <ele>1056</ele>
        <time>2009-07-11T14:06:52Z</time>
      </trkpt>
      <trkpt lat="44.77132" lon="3.73608">
        <ele>1053</ele>
        <time>2009-07-11T14:07:01Z</time>
      </trkpt>
      <trkpt lat="44.77184" lon="3.73598">
        <ele>1051</ele>
        <time>2009-07-11T14:07:07Z</time>
      </trkpt>
      <trkpt lat="44.77217" lon="3.73591">
        <ele>1048</ele>
        <time>2009-07-11T14:07:11Z</time>
      </trkpt>
      <trkpt lat="44.77255" lon="3.73584">
        <ele>1045</ele>
        <time>2009-07-11T14:07:16Z</time>
      </trkpt>
      <trkpt lat="44.77286" lon="3.73581">
        <ele>1043</ele>
        <time>2009-07-11T14:07:20Z</time>
      </trkpt>
      <trkpt lat="44.77377" lon="3.73577">
        <ele>1040</ele>
        <time>2009-07-11T14:07:32Z</time>
      </trkpt>
      <trkpt lat="44.77433" lon="3.73566">
        <ele>1041</ele>
        <time>2009-07-11T14:07:41Z</time>
      </trkpt>
      <trkpt lat="44.77476" lon="3.73583">
        <ele>1044</ele>
        <time>2009-07-11T14:07:54Z</time>
      </trkpt>
      <trkpt lat="44.77516" lon="3.73616">
        <ele>1047</ele>
        <time>2009-07-11T14:08:10Z</time>
      </trkpt>
      <trkpt lat="44.77521" lon="3.7362">
        <ele>1048</ele>
        <time>2009-07-11T14:08:12Z</time>
      </trkpt>
      <trkpt lat="44.77549" lon="3.73641">
        <ele>1051</ele>
        <time>2009-07-11T14:08:24Z</time>
      </trkpt>
      <trkpt lat="44.77579" lon="3.73663">
        <ele>1054</ele>
        <time>2009-07-11T14:08:38Z</time>
      </trkpt>
      <trkpt lat="44.77593" lon="3.73676">
        <ele>1056</ele>
        <time>2009-07-11T14:08:45Z</time>
      </trkpt>
      <trkpt lat="44.77622" lon="3.73698">
        <ele>1059</ele>
        <time>2009-07-11T14:08:59Z</time>
      </trkpt>
      <trkpt lat="44.77664" lon="3.73696">
        <ele>1063</ele>
        <time>2009-07-11T14:09:17Z</time>
      </trkpt>
      <trkpt lat="44.77669" lon="3.73694">
        <ele>1063</ele>
        <time>2009-07-11T14:09:19Z</time>
      </trkpt>
      <trkpt lat="44.77706" lon="3.73705">
        <ele>1064</ele>
        <time>2009-07-11T14:09:36Z</time>
      </trkpt>
      <trkpt lat="44.77715" lon="3.73713">
        <ele>1065</ele>
        <time>2009-07-11T14:09:40Z</time>
      </trkpt>
      <trkpt lat="44.7776" lon="3.73749">
        <ele>1062</ele>
        <time>2009-07-11T14:09:55Z</time>
      </trkpt>
      <trkpt lat="44.77835" lon="3.73799">
        <ele>1061</ele>
        <time>2009-07-11T14:10:07Z</time>
      </trkpt>
      <trkpt lat="44.77894" lon="3.73838">
        <ele>1060</ele>
        <time>2009-07-11T14:10:21Z</time>
      </trkpt>
      <trkpt lat="44.77953" lon="3.73902">
        <ele>1060</ele>
        <time>2009-07-11T14:10:37Z</time>
      </trkpt>
      <trkpt lat="44.78008" lon="3.73965">
        <ele>1061</ele>
        <time>2009-07-11T14:10:53Z</time>
      </trkpt>
      <trkpt lat="44.78031" lon="3.73991">
        <ele>1064</ele>
        <time>2009-07-11T14:11:00Z</time>
      </trkpt>
      <trkpt lat="44.78077" lon="3.74043">
        <ele>1066</ele>
        <time>2009-07-11T14:11:16Z</time>
      </trkpt>
      <trkpt lat="44.78098" lon="3.74065">
        <ele>1070</ele>
        <time>2009-07-11T14:11:24Z</time>
      </trkpt>
      <trkpt lat="44.78102" lon="3.7407">
        <ele>1070</ele>
        <time>2009-07-11T14:11:26Z</time>
      </trkpt>
      <trkpt lat="44.78138" lon="3.7411">
        <ele>1074</ele>
        <time>2009-07-11T14:11:42Z</time>
      </trkpt>
      <trkpt lat="44.78141" lon="3.74112">
        <ele>1074</ele>
        <time>2009-07-11T14:11:43Z</time>
      </trkpt>
      <trkpt lat="44.78184" lon="3.74161">
        <ele>1077</ele>
        <time>2009-07-11T14:12:03Z</time>
      </trkpt>
      <trkpt lat="44.78193" lon="3.7417">
        <ele>1079</ele>
        <time>2009-07-11T14:12:07Z</time>
      </trkpt>
      <trkpt lat="44.78203" lon="3.74178">
        <ele>1080</ele>
        <time>2009-07-11T14:12:11Z</time>
      </trkpt>
      <trkpt lat="44.7825" lon="3.74215">
        <ele>1084</ele>
        <time>2009-07-11T14:12:30Z</time>
      </trkpt>
      <trkpt lat="44.78252" lon="3.74216">
        <ele>1083</ele>
        <time>2009-07-11T14:12:31Z</time>
      </trkpt>
      <trkpt lat="44.78296" lon="3.74224">
        <ele>1083</ele>
        <time>2009-07-11T14:12:47Z</time>
      </trkpt>
      <trkpt lat="44.78336" lon="3.74229">
        <ele>1083</ele>
        <time>2009-07-11T14:13:04Z</time>
      </trkpt>
      <trkpt lat="44.7835" lon="3.74232">
        <ele>1083</ele>
        <time>2009-07-11T14:13:18Z</time>
      </trkpt>
      <trkpt lat="44.78351" lon="3.74234">
        <ele>1082</ele>
        <time>2009-07-11T14:13:50Z</time>
      </trkpt>
      <trkpt lat="44.78354" lon="3.74234">
        <ele>1082</ele>
        <time>2009-07-11T14:15:51Z</time>
      </trkpt>
      <trkpt lat="44.78373" lon="3.74234">
        <ele>1080</ele>
        <time>2009-07-11T14:15:58Z</time>
      </trkpt>
      <trkpt lat="44.7839" lon="3.74234">
        <ele>1077</ele>
        <time>2009-07-11T14:16:02Z</time>
      </trkpt>
      <trkpt lat="44.78406" lon="3.74236">
        <ele>1076</ele>
        <time>2009-07-11T14:16:05Z</time>
      </trkpt>
      <trkpt lat="44.78425" lon="3.74241">
        <ele>1075</ele>
        <time>2009-07-11T14:16:08Z</time>
      </trkpt>
      <trkpt lat="44.78469" lon="3.74239">
        <ele>1070</ele>
        <time>2009-07-11T14:16:14Z</time>
      </trkpt>
      <trkpt lat="44.78487" lon="3.74234">
        <ele>1069</ele>
        <time>2009-07-11T14:16:16Z</time>
      </trkpt>
      <trkpt lat="44.78516" lon="3.74227">
        <ele>1066</ele>
        <time>2009-07-11T14:16:19Z</time>
      </trkpt>
      <trkpt lat="44.78532" lon="3.74224">
        <ele>1065</ele>
        <time>2009-07-11T14:16:21Z</time>
      </trkpt>
      <trkpt lat="44.78554" lon="3.74212">
        <ele>1061</ele>
        <time>2009-07-11T14:16:24Z</time>
      </trkpt>
      <trkpt lat="44.78561" lon="3.74205">
        <ele>1061</ele>
        <time>2009-07-11T14:16:25Z</time>
      </trkpt>
      <trkpt lat="44.78569" lon="3.74198">
        <ele>1058</ele>
        <time>2009-07-11T14:16:26Z</time>
      </trkpt>
      <trkpt lat="44.78578" lon="3.74193">
        <ele>1056</ele>
        <time>2009-07-11T14:16:27Z</time>
      </trkpt>
      <trkpt lat="44.78626" lon="3.7417">
        <ele>1051</ele>
        <time>2009-07-11T14:16:32Z</time>
      </trkpt>
      <trkpt lat="44.78646" lon="3.74162">
        <ele>1050</ele>
        <time>2009-07-11T14:16:34Z</time>
      </trkpt>
      <trkpt lat="44.78678" lon="3.74153">
        <ele>1047</ele>
        <time>2009-07-11T14:16:37Z</time>
      </trkpt>
      <trkpt lat="44.78699" lon="3.74151">
        <ele>1045</ele>
        <time>2009-07-11T14:16:39Z</time>
      </trkpt>
      <trkpt lat="44.78721" lon="3.74154">
        <ele>1043</ele>
        <time>2009-07-11T14:16:41Z</time>
      </trkpt>
      <trkpt lat="44.78754" lon="3.74167">
        <ele>1039</ele>
        <time>2009-07-11T14:16:44Z</time>
      </trkpt>
      <trkpt lat="44.78776" lon="3.74174">
        <ele>1038</ele>
        <time>2009-07-11T14:16:46Z</time>
      </trkpt>
      <trkpt lat="44.78807" lon="3.74183">
        <ele>1036</ele>
        <time>2009-07-11T14:16:49Z</time>
      </trkpt>
      <trkpt lat="44.78838" lon="3.74194">
        <ele>1034</ele>
        <time>2009-07-11T14:16:52Z</time>
      </trkpt>
      <trkpt lat="44.78916" lon="3.74215">
        <ele>1032</ele>
        <time>2009-07-11T14:17:01Z</time>
      </trkpt>
      <trkpt lat="44.7893" lon="3.7422">
        <ele>1033</ele>
        <time>2009-07-11T14:17:03Z</time>
      </trkpt>
      <trkpt lat="44.7895" lon="3.74231">
        <ele>1030</ele>
        <time>2009-07-11T14:17:06Z</time>
      </trkpt>
      <trkpt lat="44.7902" lon="3.74253">
        <ele>1030</ele>
        <time>2009-07-11T14:17:18Z</time>
      </trkpt>
      <trkpt lat="44.79068" lon="3.74264">
        <ele>1032</ele>
        <time>2009-07-11T14:17:31Z</time>
      </trkpt>
      <trkpt lat="44.79122" lon="3.74273">
        <ele>1034</ele>
        <time>2009-07-11T14:17:47Z</time>
      </trkpt>
      <trkpt lat="44.7915" lon="3.74271">
        <ele>1037</ele>
        <time>2009-07-11T14:17:57Z</time>
      </trkpt>
      <trkpt lat="44.79193" lon="3.74274">
        <ele>1037</ele>
        <time>2009-07-11T14:18:11Z</time>
      </trkpt>
      <trkpt lat="44.79233" lon="3.74271">
        <ele>1035</ele>
        <time>2009-07-11T14:18:18Z</time>
      </trkpt>
      <trkpt lat="44.79259" lon="3.7428">
        <ele>1032</ele>
        <time>2009-07-11T14:18:22Z</time>
      </trkpt>
      <trkpt lat="44.79283" lon="3.74285">
        <ele>1028</ele>
        <time>2009-07-11T14:18:25Z</time>
      </trkpt>
      <trkpt lat="44.79301" lon="3.74287">
        <ele>1026</ele>
        <time>2009-07-11T14:18:27Z</time>
      </trkpt>
      <trkpt lat="44.79328" lon="3.7429">
        <ele>1024</ele>
        <time>2009-07-11T14:18:30Z</time>
      </trkpt>
      <trkpt lat="44.79376" lon="3.74292">
        <ele>1024</ele>
        <time>2009-07-11T14:18:36Z</time>
      </trkpt>
      <trkpt lat="44.79401" lon="3.74295">
        <ele>1025</ele>
        <time>2009-07-11T14:18:40Z</time>
      </trkpt>
      <trkpt lat="44.79429" lon="3.74307">
        <ele>1022</ele>
        <time>2009-07-11T14:18:44Z</time>
      </trkpt>
      <trkpt lat="44.79445" lon="3.74314">
        <ele>1021</ele>
        <time>2009-07-11T14:18:46Z</time>
      </trkpt>
      <trkpt lat="44.79481" lon="3.74315">
        <ele>1015</ele>
        <time>2009-07-11T14:18:50Z</time>
      </trkpt>
      <trkpt lat="44.79509" lon="3.74309">
        <ele>1015</ele>
        <time>2009-07-11T14:18:53Z</time>
      </trkpt>
      <trkpt lat="44.79561" lon="3.74321">
        <ele>1012</ele>
        <time>2009-07-11T14:18:59Z</time>
      </trkpt>
      <trkpt lat="44.79579" lon="3.74323">
        <ele>1011</ele>
        <time>2009-07-11T14:19:01Z</time>
      </trkpt>
      <trkpt lat="44.7962" lon="3.74306">
        <ele>1008</ele>
        <time>2009-07-11T14:19:06Z</time>
      </trkpt>
      <trkpt lat="44.79639" lon="3.74298">
        <ele>1005</ele>
        <time>2009-07-11T14:19:08Z</time>
      </trkpt>
      <trkpt lat="44.79659" lon="3.74295">
        <ele>1003</ele>
        <time>2009-07-11T14:19:10Z</time>
      </trkpt>
      <trkpt lat="44.79699" lon="3.74296">
        <ele>998</ele>
        <time>2009-07-11T14:19:14Z</time>
      </trkpt>
      <trkpt lat="44.7975" lon="3.74304">
        <ele>994</ele>
        <time>2009-07-11T14:19:19Z</time>
      </trkpt>
      <trkpt lat="44.7976" lon="3.74307">
        <ele>994</ele>
        <time>2009-07-11T14:19:20Z</time>
      </trkpt>
      <trkpt lat="44.79779" lon="3.74312">
        <ele>995</ele>
        <time>2009-07-11T14:19:22Z</time>
      </trkpt>
      <trkpt lat="44.79798" lon="3.74313">
        <ele>995</ele>
        <time>2009-07-11T14:19:24Z</time>
      </trkpt>
      <trkpt lat="44.79832" lon="3.74327">
        <ele>994</ele>
        <time>2009-07-11T14:19:28Z</time>
      </trkpt>
      <trkpt lat="44.79881" lon="3.74319">
        <ele>990</ele>
        <time>2009-07-11T14:19:34Z</time>
      </trkpt>
      <trkpt lat="44.79889" lon="3.74316">
        <ele>988</ele>
        <time>2009-07-11T14:19:35Z</time>
      </trkpt>
      <trkpt lat="44.79915" lon="3.7431">
        <ele>987</ele>
        <time>2009-07-11T14:19:38Z</time>
      </trkpt>
      <trkpt lat="44.79972" lon="3.74284">
        <ele>984</ele>
        <time>2009-07-11T14:19:45Z</time>
      </trkpt>
      <trkpt lat="44.79984" lon="3.74268">
        <ele>984</ele>
        <time>2009-07-11T14:19:47Z</time>
      </trkpt>
      <trkpt lat="44.80004" lon="3.74249">
        <ele>982</ele>
        <time>2009-07-11T14:19:50Z</time>
      </trkpt>
      <trkpt lat="44.8007" lon="3.74215">
        <ele>983</ele>
        <time>2009-07-11T14:20:00Z</time>
      </trkpt>
      <trkpt lat="44.80107" lon="3.74218">
        <ele>979</ele>
        <time>2009-07-11T14:20:05Z</time>
      </trkpt>
      <trkpt lat="44.80139" lon="3.74237">
        <ele>977</ele>
        <time>2009-07-11T14:20:09Z</time>
      </trkpt>
      <trkpt lat="44.8022" lon="3.7427">
        <ele>976</ele>
        <time>2009-07-11T14:20:20Z</time>
      </trkpt>
      <trkpt lat="44.80235" lon="3.7427">
        <ele>974</ele>
        <time>2009-07-11T14:20:28Z</time>
      </trkpt>
      <trkpt lat="44.80234" lon="3.7427">
        <ele>975</ele>
        <time>2009-07-11T14:20:54Z</time>
      </trkpt>
      <trkpt lat="44.80249" lon="3.74267">
        <ele>974</ele>
        <time>2009-07-11T14:21:06Z</time>
      </trkpt>
      <trkpt lat="44.80264" lon="3.74267">
        <ele>971</ele>
        <time>2009-07-11T14:21:10Z</time>
      </trkpt>
      <trkpt lat="44.80285" lon="3.74264">
        <ele>970</ele>
        <time>2009-07-11T14:21:14Z</time>
      </trkpt>
      <trkpt lat="44.80316" lon="3.74246">
        <ele>967</ele>
        <time>2009-07-11T14:21:20Z</time>
      </trkpt>
      <trkpt lat="44.80328" lon="3.74238">
        <ele>966</ele>
        <time>2009-07-11T14:21:22Z</time>
      </trkpt>
      <trkpt lat="44.80354" lon="3.74222">
        <ele>964</ele>
        <time>2009-07-11T14:21:26Z</time>
      </trkpt>
      <trkpt lat="44.80366" lon="3.74213">
        <ele>965</ele>
        <time>2009-07-11T14:21:28Z</time>
      </trkpt>
      <trkpt lat="44.80378" lon="3.74202">
        <ele>964</ele>
        <time>2009-07-11T14:21:30Z</time>
      </trkpt>
      <trkpt lat="44.80412" lon="3.74155">
        <ele>964</ele>
        <time>2009-07-11T14:21:38Z</time>
      </trkpt>
      <trkpt lat="44.80423" lon="3.74147">
        <ele>963</ele>
        <time>2009-07-11T14:21:40Z</time>
      </trkpt>
      <trkpt lat="44.80475" lon="3.7414">
        <ele>959</ele>
        <time>2009-07-11T14:21:48Z</time>
      </trkpt>
      <trkpt lat="44.80482" lon="3.7414">
        <ele>959</ele>
        <time>2009-07-11T14:21:49Z</time>
      </trkpt>
      <trkpt lat="44.80522" lon="3.74132">
        <ele>958</ele>
        <time>2009-07-11T14:21:55Z</time>
      </trkpt>
      <trkpt lat="44.80565" lon="3.7413">
        <ele>954</ele>
        <time>2009-07-11T14:22:01Z</time>
      </trkpt>
      <trkpt lat="44.80589" lon="3.74143">
        <ele>952</ele>
        <time>2009-07-11T14:22:04Z</time>
      </trkpt>
      <trkpt lat="44.80609" lon="3.7415">
        <ele>947</ele>
        <time>2009-07-11T14:22:07Z</time>
      </trkpt>
      <trkpt lat="44.80634" lon="3.74115">
        <ele>945</ele>
        <time>2009-07-11T14:22:13Z</time>
      </trkpt>
      <trkpt lat="44.80635" lon="3.74106">
        <ele>945</ele>
        <time>2009-07-11T14:22:14Z</time>
      </trkpt>
      <trkpt lat="44.80663" lon="3.74061">
        <ele>942</ele>
        <time>2009-07-11T14:22:22Z</time>
      </trkpt>
      <trkpt lat="44.80699" lon="3.74095">
        <ele>938</ele>
        <time>2009-07-11T14:22:28Z</time>
      </trkpt>
      <trkpt lat="44.80707" lon="3.74099">
        <ele>937</ele>
        <time>2009-07-11T14:22:29Z</time>
      </trkpt>
      <trkpt lat="44.80737" lon="3.74104">
        <ele>929</ele>
        <time>2009-07-11T14:22:32Z</time>
      </trkpt>
      <trkpt lat="44.80823" lon="3.7413">
        <ele>934</ele>
        <time>2009-07-11T14:22:42Z</time>
      </trkpt>
      <trkpt lat="44.80886" lon="3.74171">
        <ele>933</ele>
        <time>2009-07-11T14:22:53Z</time>
      </trkpt>
      <trkpt lat="44.80921" lon="3.74196">
        <ele>932</ele>
        <time>2009-07-11T14:23:00Z</time>
      </trkpt>
      <trkpt lat="44.80937" lon="3.74212">
        <ele>931</ele>
        <time>2009-07-11T14:23:03Z</time>
      </trkpt>
      <trkpt lat="44.80941" lon="3.74219">
        <ele>930</ele>
        <time>2009-07-11T14:23:04Z</time>
      </trkpt>
      <trkpt lat="44.80955" lon="3.74231">
        <ele>928</ele>
        <time>2009-07-11T14:23:07Z</time>
      </trkpt>
      <trkpt lat="44.8097" lon="3.74223">
        <ele>926</ele>
        <time>2009-07-11T14:23:10Z</time>
      </trkpt>
      <trkpt lat="44.81004" lon="3.74205">
        <ele>921</ele>
        <time>2009-07-11T14:23:15Z</time>
      </trkpt>
      <trkpt lat="44.81029" lon="3.74202">
        <ele>917</ele>
        <time>2009-07-11T14:23:18Z</time>
      </trkpt>
      <trkpt lat="44.81046" lon="3.74198">
        <ele>915</ele>
        <time>2009-07-11T14:23:20Z</time>
      </trkpt>
      <trkpt lat="44.8109" lon="3.74149">
        <ele>914</ele>
        <time>2009-07-11T14:23:28Z</time>
      </trkpt>
      <trkpt lat="44.81118" lon="3.74156">
        <ele>910</ele>
        <time>2009-07-11T14:23:34Z</time>
      </trkpt>
      <trkpt lat="44.81136" lon="3.74176">
        <ele>912</ele>
        <time>2009-07-11T14:23:39Z</time>
      </trkpt>
      <trkpt lat="44.81138" lon="3.74183">
        <ele>912</ele>
        <time>2009-07-11T14:23:50Z</time>
      </trkpt>
      <trkpt lat="44.81144" lon="3.74198">
        <ele>910</ele>
        <time>2009-07-11T14:24:17Z</time>
      </trkpt>
      <trkpt lat="44.81176" lon="3.74266">
        <ele>910</ele>
        <time>2009-07-11T14:24:31Z</time>
      </trkpt>
      <trkpt lat="44.81241" lon="3.74358">
        <ele>908</ele>
        <time>2009-07-11T14:24:48Z</time>
      </trkpt>
      <trkpt lat="44.81328" lon="3.74419">
        <ele>907</ele>
        <time>2009-07-11T14:25:06Z</time>
      </trkpt>
      <trkpt lat="44.8136" lon="3.74439">
        <ele>908</ele>
        <time>2009-07-11T14:25:13Z</time>
      </trkpt>
      <trkpt lat="44.81366" lon="3.74463">
        <ele>909</ele>
        <time>2009-07-11T14:25:18Z</time>
      </trkpt>
      <trkpt lat="44.81364" lon="3.74476">
        <ele>910</ele>
        <time>2009-07-11T14:25:21Z</time>
      </trkpt>
      <trkpt lat="44.81373" lon="3.74483">
        <ele>910</ele>
        <time>2009-07-11T14:25:25Z</time>
      </trkpt>
      <trkpt lat="44.81399" lon="3.74478">
        <ele>912</ele>
        <time>2009-07-11T14:25:33Z</time>
      </trkpt>
      <trkpt lat="44.81429" lon="3.74475">
        <ele>914</ele>
        <time>2009-07-11T14:25:43Z</time>
      </trkpt>
      <trkpt lat="44.81492" lon="3.74473">
        <ele>915</ele>
        <time>2009-07-11T14:26:02Z</time>
      </trkpt>
      <trkpt lat="44.81549" lon="3.74474">
        <ele>918</ele>
        <time>2009-07-11T14:26:19Z</time>
      </trkpt>
      <trkpt lat="44.81584" lon="3.74479">
        <ele>917</ele>
        <time>2009-07-11T14:26:29Z</time>
      </trkpt>
      <trkpt lat="44.81599" lon="3.74476">
        <ele>915</ele>
        <time>2009-07-11T14:26:32Z</time>
      </trkpt>
      <trkpt lat="44.81639" lon="3.74488">
        <ele>911</ele>
        <time>2009-07-11T14:26:38Z</time>
      </trkpt>
      <trkpt lat="44.81654" lon="3.74491">
        <ele>908</ele>
        <time>2009-07-11T14:26:40Z</time>
      </trkpt>
      <trkpt lat="44.8168" lon="3.74494">
        <ele>907</ele>
        <time>2009-07-11T14:26:43Z</time>
      </trkpt>
      <trkpt lat="44.81738" lon="3.74519">
        <ele>904</ele>
        <time>2009-07-11T14:26:50Z</time>
      </trkpt>
      <trkpt lat="44.81788" lon="3.74547">
        <ele>903</ele>
        <time>2009-07-11T14:26:57Z</time>
      </trkpt>
      <trkpt lat="44.8184" lon="3.74547">
        <ele>902</ele>
        <time>2009-07-11T14:27:04Z</time>
      </trkpt>
      <trkpt lat="44.81863" lon="3.74541">
        <ele>900</ele>
        <time>2009-07-11T14:27:07Z</time>
      </trkpt>
      <trkpt lat="44.81888" lon="3.74537">
        <ele>897</ele>
        <time>2009-07-11T14:27:10Z</time>
      </trkpt>
      <trkpt lat="44.81897" lon="3.74536">
        <ele>897</ele>
        <time>2009-07-11T14:27:11Z</time>
      </trkpt>
      <trkpt lat="44.81926" lon="3.74547">
        <ele>893</ele>
        <time>2009-07-11T14:27:14Z</time>
      </trkpt>
      <trkpt lat="44.81968" lon="3.74569">
        <ele>893</ele>
        <time>2009-07-11T14:27:19Z</time>
      </trkpt>
      <trkpt lat="44.82005" lon="3.7458">
        <ele>892</ele>
        <time>2009-07-11T14:27:24Z</time>
      </trkpt>
      <trkpt lat="44.82024" lon="3.7459">
        <ele>892</ele>
        <time>2009-07-11T14:27:27Z</time>
      </trkpt>
      <trkpt lat="44.82056" lon="3.74594">
        <ele>897</ele>
        <time>2009-07-11T14:27:35Z</time>
      </trkpt>
      <trkpt lat="44.82095" lon="3.74591">
        <ele>898</ele>
        <time>2009-07-11T14:27:51Z</time>
      </trkpt>
      <trkpt lat="44.82108" lon="3.74566">
        <ele>900</ele>
        <time>2009-07-11T14:28:02Z</time>
      </trkpt>
      <trkpt lat="44.82117" lon="3.74554">
        <ele>903</ele>
        <time>2009-07-11T14:28:10Z</time>
      </trkpt>
      <trkpt lat="44.82125" lon="3.74552">
        <ele>903</ele>
        <time>2009-07-11T14:28:23Z</time>
      </trkpt>
      <trkpt lat="44.82127" lon="3.74553">
        <ele>903</ele>
        <time>2009-07-11T14:28:44Z</time>
      </trkpt>
      <trkpt lat="44.8216" lon="3.74538">
        <ele>902</ele>
        <time>2009-07-11T14:28:56Z</time>
      </trkpt>
      <trkpt lat="44.82219" lon="3.74529">
        <ele>901</ele>
        <time>2009-07-11T14:29:11Z</time>
      </trkpt>
      <trkpt lat="44.82248" lon="3.7453">
        <ele>901</ele>
        <time>2009-07-11T14:29:17Z</time>
      </trkpt>
      <trkpt lat="44.82282" lon="3.74519">
        <ele>901</ele>
        <time>2009-07-11T14:29:25Z</time>
      </trkpt>
      <trkpt lat="44.82339" lon="3.74487">
        <ele>904</ele>
        <time>2009-07-11T14:29:42Z</time>
      </trkpt>
      <trkpt lat="44.82392" lon="3.74446">
        <ele>906</ele>
        <time>2009-07-11T14:30:01Z</time>
      </trkpt>
      <trkpt lat="44.82424" lon="3.74422">
        <ele>910</ele>
        <time>2009-07-11T14:30:14Z</time>
      </trkpt>
      <trkpt lat="44.82426" lon="3.74419">
        <ele>910</ele>
        <time>2009-07-11T14:30:15Z</time>
      </trkpt>
      <trkpt lat="44.82454" lon="3.74403">
        <ele>912</ele>
        <time>2009-07-11T14:30:29Z</time>
      </trkpt>
      <trkpt lat="44.82483" lon="3.74423">
        <ele>915</ele>
        <time>2009-07-11T14:30:44Z</time>
      </trkpt>
      <trkpt lat="44.82505" lon="3.74409">
        <ele>918</ele>
        <time>2009-07-11T14:30:54Z</time>
      </trkpt>
      <trkpt lat="44.82531" lon="3.74372">
        <ele>917</ele>
        <time>2009-07-11T14:31:06Z</time>
      </trkpt>
      <trkpt lat="44.82535" lon="3.74347">
        <ele>914</ele>
        <time>2009-07-11T14:31:10Z</time>
      </trkpt>
      <trkpt lat="44.82536" lon="3.74333">
        <ele>914</ele>
        <time>2009-07-11T14:31:12Z</time>
      </trkpt>
      <trkpt lat="44.82542" lon="3.74307">
        <ele>913</ele>
        <time>2009-07-11T14:31:16Z</time>
      </trkpt>
      <trkpt lat="44.82552" lon="3.74264">
        <ele>912</ele>
        <time>2009-07-11T14:31:22Z</time>
      </trkpt>
      <trkpt lat="44.8257" lon="3.74241">
        <ele>911</ele>
        <time>2009-07-11T14:31:27Z</time>
      </trkpt>
      <trkpt lat="44.82588" lon="3.74235">
        <ele>910</ele>
        <time>2009-07-11T14:31:31Z</time>
      </trkpt>
      <trkpt lat="44.82655" lon="3.74214">
        <ele>911</ele>
        <time>2009-07-11T14:31:47Z</time>
      </trkpt>
      <trkpt lat="44.82663" lon="3.74211">
        <ele>912</ele>
        <time>2009-07-11T14:31:49Z</time>
      </trkpt>
      <trkpt lat="44.82714" lon="3.7416">
        <ele>915</ele>
        <time>2009-07-11T14:32:06Z</time>
      </trkpt>
      <trkpt lat="44.82723" lon="3.74146">
        <ele>916</ele>
        <time>2009-07-11T14:32:11Z</time>
      </trkpt>
      <trkpt lat="44.82748" lon="3.74125">
        <ele>919</ele>
        <time>2009-07-11T14:32:26Z</time>
      </trkpt>
      <trkpt lat="44.82748" lon="3.74125">
        <ele>919</ele>
        <time>2009-07-11T14:32:30Z</time>
      </trkpt>
      <trkpt lat="44.8275" lon="3.74126">
        <ele>920</ele>
        <time>2009-07-11T14:32:32Z</time>
      </trkpt>
      <trkpt lat="44.82754" lon="3.74123">
        <ele>920</ele>
        <time>2009-07-11T14:32:45Z</time>
      </trkpt>
      <trkpt lat="44.82756" lon="3.74122">
        <ele>920</ele>
        <time>2009-07-11T14:32:47Z</time>
      </trkpt>
      <trkpt lat="44.82758" lon="3.74119">
        <ele>921</ele>
        <time>2009-07-11T14:32:50Z</time>
      </trkpt>
      <trkpt lat="44.82769" lon="3.74115">
        <ele>923</ele>
        <time>2009-07-11T14:33:05Z</time>
      </trkpt>
      <trkpt lat="44.82769" lon="3.74116">
        <ele>922</ele>
        <time>2009-07-11T14:33:07Z</time>
      </trkpt>
      <trkpt lat="44.82797" lon="3.74111">
        <ele>922</ele>
        <time>2009-07-11T14:33:21Z</time>
      </trkpt>
      <trkpt lat="44.82831" lon="3.74091">
        <ele>924</ele>
        <time>2009-07-11T14:33:37Z</time>
      </trkpt>
      <trkpt lat="44.82845" lon="3.74086">
        <ele>922</ele>
        <time>2009-07-11T14:33:41Z</time>
      </trkpt>
      <trkpt lat="44.82886" lon="3.74055">
        <ele>923</ele>
        <time>2009-07-11T14:33:56Z</time>
      </trkpt>
      <trkpt lat="44.82912" lon="3.74034">
        <ele>926</ele>
        <time>2009-07-11T14:34:09Z</time>
      </trkpt>
      <trkpt lat="44.82948" lon="3.74051">
        <ele>926</ele>
        <time>2009-07-11T14:34:23Z</time>
      </trkpt>
      <trkpt lat="44.82975" lon="3.74074">
        <ele>924</ele>
        <time>2009-07-11T14:34:30Z</time>
      </trkpt>
      <trkpt lat="44.8298" lon="3.74076">
        <ele>924</ele>
        <time>2009-07-11T14:34:31Z</time>
      </trkpt>
      <trkpt lat="44.83001" lon="3.74092">
        <ele>924</ele>
        <time>2009-07-11T14:34:36Z</time>
      </trkpt>
      <trkpt lat="44.83016" lon="3.74097">
        <ele>922</ele>
        <time>2009-07-11T14:34:39Z</time>
      </trkpt>
      <trkpt lat="44.83037" lon="3.74104">
        <ele>921</ele>
        <time>2009-07-11T14:34:43Z</time>
      </trkpt>
      <trkpt lat="44.83063" lon="3.74116">
        <ele>919</ele>
        <time>2009-07-11T14:34:48Z</time>
      </trkpt>
      <trkpt lat="44.83073" lon="3.74117">
        <ele>919</ele>
        <time>2009-07-11T14:34:50Z</time>
      </trkpt>
      <trkpt lat="44.83083" lon="3.74114">
        <ele>918</ele>
        <time>2009-07-11T14:34:52Z</time>
      </trkpt>
      <trkpt lat="44.83106" lon="3.74099">
        <ele>916</ele>
        <time>2009-07-11T14:34:57Z</time>
      </trkpt>
      <trkpt lat="44.83127" lon="3.74087">
        <ele>912</ele>
        <time>2009-07-11T14:35:01Z</time>
      </trkpt>
      <trkpt lat="44.83143" lon="3.74071">
        <ele>907</ele>
        <time>2009-07-11T14:35:04Z</time>
      </trkpt>
      <trkpt lat="44.83165" lon="3.74057">
        <ele>903</ele>
        <time>2009-07-11T14:35:08Z</time>
      </trkpt>
      <trkpt lat="44.8318" lon="3.74055">
        <ele>902</ele>
        <time>2009-07-11T14:35:10Z</time>
      </trkpt>
      <trkpt lat="44.83257" lon="3.74039">
        <ele>898</ele>
        <time>2009-07-11T14:35:21Z</time>
      </trkpt>
      <trkpt lat="44.83273" lon="3.74034">
        <ele>892</ele>
        <time>2009-07-11T14:35:23Z</time>
      </trkpt>
      <trkpt lat="44.83292" lon="3.74027">
        <ele>891</ele>
        <time>2009-07-11T14:35:25Z</time>
      </trkpt>
      <trkpt lat="44.83321" lon="3.74037">
        <ele>892</ele>
        <time>2009-07-11T14:35:30Z</time>
      </trkpt>
      <trkpt lat="44.83357" lon="3.7407">
        <ele>895</ele>
        <time>2009-07-11T14:35:41Z</time>
      </trkpt>
      <trkpt lat="44.8336" lon="3.74072">
        <ele>895</ele>
        <time>2009-07-11T14:35:42Z</time>
      </trkpt>
      <trkpt lat="44.83369" lon="3.74076">
        <ele>896</ele>
        <time>2009-07-11T14:35:45Z</time>
      </trkpt>
      <trkpt lat="44.83416" lon="3.74103">
        <ele>898</ele>
        <time>2009-07-11T14:36:02Z</time>
      </trkpt>
      <trkpt lat="44.8346" lon="3.74131">
        <ele>897</ele>
        <time>2009-07-11T14:36:16Z</time>
      </trkpt>
      <trkpt lat="44.83479" lon="3.74144">
        <ele>895</ele>
        <time>2009-07-11T14:36:22Z</time>
      </trkpt>
      <trkpt lat="44.83497" lon="3.74126">
        <ele>893</ele>
        <time>2009-07-11T14:36:29Z</time>
      </trkpt>
      <trkpt lat="44.83506" lon="3.7411">
        <ele>891</ele>
        <time>2009-07-11T14:36:32Z</time>
      </trkpt>
      <trkpt lat="44.83513" lon="3.74092">
        <ele>893</ele>
        <time>2009-07-11T14:36:35Z</time>
      </trkpt>
      <trkpt lat="44.8353" lon="3.74098">
        <ele>892</ele>
        <time>2009-07-11T14:36:41Z</time>
      </trkpt>
      <trkpt lat="44.83538" lon="3.74133">
        <ele>889</ele>
        <time>2009-07-11T14:36:47Z</time>
      </trkpt>
      <trkpt lat="44.83539" lon="3.74139">
        <ele>888</ele>
        <time>2009-07-11T14:36:48Z</time>
      </trkpt>
      <trkpt lat="44.83544" lon="3.74159">
        <ele>886</ele>
        <time>2009-07-11T14:36:51Z</time>
      </trkpt>
      <trkpt lat="44.83544" lon="3.74187">
        <ele>881</ele>
        <time>2009-07-11T14:36:56Z</time>
      </trkpt>
      <trkpt lat="44.83546" lon="3.74205">
        <ele>877</ele>
        <time>2009-07-11T14:37:00Z</time>
      </trkpt>
      <trkpt lat="44.8355" lon="3.74222">
        <ele>874</ele>
        <time>2009-07-11T14:37:03Z</time>
      </trkpt>
      <trkpt lat="44.83559" lon="3.74233">
        <ele>871</ele>
        <time>2009-07-11T14:37:05Z</time>
      </trkpt>
      <trkpt lat="44.83576" lon="3.74253">
        <ele>866</ele>
        <time>2009-07-11T14:37:10Z</time>
      </trkpt>
      <trkpt lat="44.83594" lon="3.74262">
        <ele>862</ele>
        <time>2009-07-11T14:37:15Z</time>
      </trkpt>
      <trkpt lat="44.83603" lon="3.74255">
        <ele>859</ele>
        <time>2009-07-11T14:37:20Z</time>
      </trkpt>
      <trkpt lat="44.83602" lon="3.74255">
        <ele>860</ele>
        <time>2009-07-11T14:37:21Z</time>
      </trkpt>
      <trkpt lat="44.836" lon="3.74254">
        <ele>861</ele>
        <time>2009-07-11T14:37:25Z</time>
      </trkpt>
      <trkpt lat="44.83611" lon="3.74233">
        <ele>856</ele>
        <time>2009-07-11T14:37:33Z</time>
      </trkpt>
      <trkpt lat="44.83614" lon="3.7423">
        <ele>855</ele>
        <time>2009-07-11T14:37:34Z</time>
      </trkpt>
      <trkpt lat="44.83621" lon="3.74223">
        <ele>852</ele>
        <time>2009-07-11T14:37:36Z</time>
      </trkpt>
      <trkpt lat="44.83637" lon="3.74205">
        <ele>848</ele>
        <time>2009-07-11T14:37:40Z</time>
      </trkpt>
      <trkpt lat="44.8365" lon="3.74205">
        <ele>845</ele>
        <time>2009-07-11T14:37:45Z</time>
      </trkpt>
      <trkpt lat="44.83649" lon="3.74214">
        <ele>842</ele>
        <time>2009-07-11T14:37:47Z</time>
      </trkpt>
      <trkpt lat="44.83649" lon="3.74233">
        <ele>840</ele>
        <time>2009-07-11T14:37:50Z</time>
      </trkpt>
      <trkpt lat="44.83646" lon="3.7426">
        <ele>835</ele>
        <time>2009-07-11T14:37:55Z</time>
      </trkpt>
      <trkpt lat="44.83657" lon="3.74268">
        <ele>835</ele>
        <time>2009-07-11T14:38:03Z</time>
      </trkpt>
      <trkpt lat="44.83659" lon="3.74279">
        <ele>835</ele>
        <time>2009-07-11T14:38:29Z</time>
      </trkpt>
      <trkpt lat="44.83662" lon="3.74277">
        <ele>835</ele>
        <time>2009-07-11T14:38:50Z</time>
      </trkpt>
      <trkpt lat="44.83658" lon="3.74276">
        <ele>835</ele>
        <time>2009-07-11T14:39:26Z</time>
      </trkpt>
      <trkpt lat="44.83654" lon="3.7428">
        <ele>834</ele>
        <time>2009-07-11T14:39:53Z</time>
      </trkpt>
      <trkpt lat="44.83657" lon="3.74278">
        <ele>833</ele>
        <time>2009-07-11T14:40:58Z</time>
      </trkpt>
      <trkpt lat="44.83658" lon="3.74278">
        <ele>834</ele>
        <time>2009-07-11T14:40:59Z</time>
      </trkpt>
      <trkpt lat="44.83671" lon="3.74266">
        <ele>832</ele>
        <time>2009-07-11T14:41:08Z</time>
      </trkpt>
      <trkpt lat="44.83673" lon="3.74263">
        <ele>831</ele>
        <time>2009-07-11T14:41:10Z</time>
      </trkpt>
      <trkpt lat="44.83676" lon="3.74257">
        <ele>832</ele>
        <time>2009-07-11T14:41:15Z</time>
      </trkpt>
      <trkpt lat="44.83679" lon="3.74252">
        <ele>830</ele>
        <time>2009-07-11T14:41:18Z</time>
      </trkpt>
      <trkpt lat="44.83689" lon="3.74235">
        <ele>828</ele>
        <time>2009-07-11T14:41:22Z</time>
      </trkpt>
      <trkpt lat="44.83695" lon="3.74223">
        <ele>827</ele>
        <time>2009-07-11T14:41:24Z</time>
      </trkpt>
      <trkpt lat="44.83699" lon="3.74209">
        <ele>826</ele>
        <time>2009-07-11T14:41:26Z</time>
      </trkpt>
      <trkpt lat="44.83709" lon="3.74178">
        <ele>821</ele>
        <time>2009-07-11T14:41:31Z</time>
      </trkpt>
      <trkpt lat="44.83711" lon="3.74163">
        <ele>819</ele>
        <time>2009-07-11T14:41:33Z</time>
      </trkpt>
      <trkpt lat="44.83714" lon="3.7414">
        <ele>817</ele>
        <time>2009-07-11T14:41:36Z</time>
      </trkpt>
      <trkpt lat="44.83715" lon="3.74111">
        <ele>814</ele>
        <time>2009-07-11T14:41:40Z</time>
      </trkpt>
      <trkpt lat="44.8372" lon="3.74073">
        <ele>811</ele>
        <time>2009-07-11T14:41:47Z</time>
      </trkpt>
      <trkpt lat="44.8372" lon="3.74069">
        <ele>810</ele>
        <time>2009-07-11T14:41:48Z</time>
      </trkpt>
      <trkpt lat="44.83722" lon="3.74055">
        <ele>807</ele>
        <time>2009-07-11T14:41:51Z</time>
      </trkpt>
      <trkpt lat="44.83724" lon="3.74034">
        <ele>806</ele>
        <time>2009-07-11T14:41:54Z</time>
      </trkpt>
      <trkpt lat="44.83723" lon="3.73995">
        <ele>802</ele>
        <time>2009-07-11T14:42:01Z</time>
      </trkpt>
      <trkpt lat="44.83721" lon="3.73989">
        <ele>802</ele>
        <time>2009-07-11T14:42:02Z</time>
      </trkpt>
      <trkpt lat="44.83721" lon="3.73952">
        <ele>798</ele>
        <time>2009-07-11T14:42:10Z</time>
      </trkpt>
      <trkpt lat="44.83721" lon="3.73948">
        <ele>798</ele>
        <time>2009-07-11T14:42:11Z</time>
      </trkpt>
      <trkpt lat="44.83721" lon="3.73939">
        <ele>798</ele>
        <time>2009-07-11T14:42:13Z</time>
      </trkpt>
      <trkpt lat="44.83722" lon="3.73903">
        <ele>794</ele>
        <time>2009-07-11T14:42:18Z</time>
      </trkpt>
      <trkpt lat="44.83719" lon="3.73879">
        <ele>792</ele>
        <time>2009-07-11T14:42:21Z</time>
      </trkpt>
      <trkpt lat="44.83714" lon="3.73844">
        <ele>789</ele>
        <time>2009-07-11T14:42:27Z</time>
      </trkpt>
      <trkpt lat="44.83722" lon="3.73849">
        <ele>788</ele>
        <time>2009-07-11T14:42:30Z</time>
      </trkpt>
      <trkpt lat="44.83727" lon="3.73857">
        <ele>786</ele>
        <time>2009-07-11T14:42:32Z</time>
      </trkpt>
      <trkpt lat="44.83736" lon="3.73876">
        <ele>784</ele>
        <time>2009-07-11T14:42:35Z</time>
      </trkpt>
      <trkpt lat="44.83738" lon="3.73883">
        <ele>783</ele>
        <time>2009-07-11T14:42:36Z</time>
      </trkpt>
      <trkpt lat="44.83743" lon="3.73909">
        <ele>781</ele>
        <time>2009-07-11T14:42:40Z</time>
      </trkpt>
      <trkpt lat="44.83758" lon="3.73943">
        <ele>779</ele>
        <time>2009-07-11T14:42:45Z</time>
      </trkpt>
      <trkpt lat="44.8376" lon="3.73949">
        <ele>779</ele>
        <time>2009-07-11T14:42:46Z</time>
      </trkpt>
      <trkpt lat="44.83769" lon="3.73953">
        <ele>778</ele>
        <time>2009-07-11T14:42:56Z</time>
      </trkpt>
      <trkpt lat="44.83764" lon="3.7395">
        <ele>777</ele>
        <time>2009-07-11T14:45:17Z</time>
      </trkpt>
      <trkpt lat="44.83768" lon="3.73906">
        <ele>774</ele>
        <time>2009-07-11T14:45:27Z</time>
      </trkpt>
      <trkpt lat="44.83768" lon="3.73881">
        <ele>770</ele>
        <time>2009-07-11T14:45:30Z</time>
      </trkpt>
      <trkpt lat="44.83771" lon="3.73844">
        <ele>767</ele>
        <time>2009-07-11T14:45:35Z</time>
      </trkpt>
      <trkpt lat="44.83758" lon="3.7381">
        <ele>766</ele>
        <time>2009-07-11T14:45:41Z</time>
      </trkpt>
      <trkpt lat="44.83741" lon="3.73777">
        <ele>761</ele>
        <time>2009-07-11T14:45:47Z</time>
      </trkpt>
      <trkpt lat="44.83738" lon="3.73774">
        <ele>762</ele>
        <time>2009-07-11T14:45:48Z</time>
      </trkpt>
      <trkpt lat="44.83744" lon="3.7377">
        <ele>760</ele>
        <time>2009-07-11T14:45:53Z</time>
      </trkpt>
      <trkpt lat="44.83795" lon="3.73822">
        <ele>758</ele>
        <time>2009-07-11T14:46:07Z</time>
      </trkpt>
      <trkpt lat="44.83892" lon="3.73878">
        <ele>757</ele>
        <time>2009-07-11T14:46:28Z</time>
      </trkpt>
      <trkpt lat="44.83994" lon="3.73938">
        <ele>758</ele>
        <time>2009-07-11T14:46:51Z</time>
      </trkpt>
      <trkpt lat="44.84009" lon="3.73924">
        <ele>757</ele>
        <time>2009-07-11T14:46:56Z</time>
      </trkpt>
      <trkpt lat="44.84027" lon="3.73876">
        <ele>760</ele>
        <time>2009-07-11T14:47:09Z</time>
      </trkpt>
      <trkpt lat="44.84034" lon="3.73863">
        <ele>760</ele>
        <time>2009-07-11T14:47:25Z</time>
      </trkpt>
      <trkpt lat="44.84068" lon="3.73826">
        <ele>759</ele>
        <time>2009-07-11T14:47:41Z</time>
      </trkpt>
      <trkpt lat="44.84072" lon="3.73822">
        <ele>760</ele>
        <time>2009-07-11T14:47:43Z</time>
      </trkpt>
      <trkpt lat="44.84105" lon="3.73809">
        <ele>760</ele>
        <time>2009-07-11T14:47:56Z</time>
      </trkpt>
      <trkpt lat="44.84116" lon="3.73829">
        <ele>762</ele>
        <time>2009-07-11T14:48:02Z</time>
      </trkpt>
      <trkpt lat="44.84118" lon="3.73835">
        <ele>762</ele>
        <time>2009-07-11T14:48:12Z</time>
      </trkpt>
      <trkpt lat="44.84124" lon="3.73844">
        <ele>761</ele>
        <time>2009-07-11T14:49:07Z</time>
      </trkpt>
      <trkpt lat="44.8414" lon="3.73902">
        <ele>763</ele>
        <time>2009-07-11T14:49:25Z</time>
      </trkpt>
      <trkpt lat="44.84143" lon="3.73912">
        <ele>765</ele>
        <time>2009-07-11T14:49:28Z</time>
      </trkpt>
      <trkpt lat="44.84153" lon="3.73945">
        <ele>768</ele>
        <time>2009-07-11T14:49:40Z</time>
      </trkpt>
      <trkpt lat="44.84169" lon="3.73986">
        <ele>771</ele>
        <time>2009-07-11T14:49:56Z</time>
      </trkpt>
      <trkpt lat="44.84185" lon="3.74014">
        <ele>772</ele>
        <time>2009-07-11T14:50:10Z</time>
      </trkpt>
      <trkpt lat="44.84182" lon="3.74006">
        <ele>772</ele>
        <time>2009-07-11T14:50:14Z</time>
      </trkpt>
      <trkpt lat="44.84179" lon="3.74001">
        <ele>771</ele>
        <time>2009-07-11T14:50:16Z</time>
      </trkpt>
      <trkpt lat="44.84159" lon="3.73954">
        <ele>768</ele>
        <time>2009-07-11T14:50:30Z</time>
      </trkpt>
      <trkpt lat="44.84155" lon="3.73955">
        <ele>767</ele>
        <time>2009-07-11T14:50:39Z</time>
      </trkpt>
      <trkpt lat="44.84154" lon="3.73957">
        <ele>767</ele>
        <time>2009-07-11T14:51:01Z</time>
      </trkpt>
      <trkpt lat="44.84156" lon="3.73955">
        <ele>768</ele>
        <time>2009-07-11T14:51:19Z</time>
      </trkpt>
      <trkpt lat="44.84154" lon="3.73946">
        <ele>767</ele>
        <time>2009-07-11T14:51:23Z</time>
      </trkpt>
      <trkpt lat="44.84149" lon="3.73925">
        <ele>765</ele>
        <time>2009-07-11T14:51:27Z</time>
      </trkpt>
      <trkpt lat="44.84147" lon="3.73909">
        <ele>765</ele>
        <time>2009-07-11T14:51:35Z</time>
      </trkpt>
      <trkpt lat="44.84143" lon="3.73912">
        <ele>764</ele>
        <time>2009-07-11T14:55:28Z</time>
      </trkpt>
      <trkpt lat="44.84144" lon="3.73913">
        <ele>764</ele>
        <time>2009-07-11T14:55:38Z</time>
      </trkpt>
      <trkpt lat="44.84148" lon="3.73935">
        <ele>766</ele>
        <time>2009-07-11T14:55:50Z</time>
      </trkpt>
      <trkpt lat="44.84155" lon="3.73955">
        <ele>768</ele>
        <time>2009-07-11T14:55:58Z</time>
      </trkpt>
      <trkpt lat="44.84173" lon="3.73998">
        <ele>772</ele>
        <time>2009-07-11T14:56:17Z</time>
      </trkpt>
      <trkpt lat="44.84205" lon="3.74038">
        <ele>775</ele>
        <time>2009-07-11T14:56:38Z</time>
      </trkpt>
      <trkpt lat="44.84206" lon="3.74039">
        <ele>775</ele>
        <time>2009-07-11T14:56:39Z</time>
      </trkpt>
      <trkpt lat="44.84232" lon="3.74067">
        <ele>776</ele>
        <time>2009-07-11T14:56:55Z</time>
      </trkpt>
      <trkpt lat="44.84262" lon="3.74096">
        <ele>780</ele>
        <time>2009-07-11T14:57:13Z</time>
      </trkpt>
      <trkpt lat="44.84249" lon="3.74109">
        <ele>782</ele>
        <time>2009-07-11T14:57:24Z</time>
      </trkpt>
      <trkpt lat="44.84218" lon="3.74081">
        <ele>785</ele>
        <time>2009-07-11T14:57:42Z</time>
      </trkpt>
      <trkpt lat="44.84181" lon="3.74061">
        <ele>788</ele>
        <time>2009-07-11T14:58:01Z</time>
      </trkpt>
      <trkpt lat="44.84147" lon="3.74043">
        <ele>791</ele>
        <time>2009-07-11T14:58:19Z</time>
      </trkpt>
      <trkpt lat="44.84119" lon="3.74019">
        <ele>794</ele>
        <time>2009-07-11T14:58:35Z</time>
      </trkpt>
      <trkpt lat="44.84118" lon="3.74017">
        <ele>794</ele>
        <time>2009-07-11T14:58:36Z</time>
      </trkpt>
      <trkpt lat="44.84094" lon="3.73973">
        <ele>798</ele>
        <time>2009-07-11T14:58:55Z</time>
      </trkpt>
      <trkpt lat="44.84093" lon="3.73972">
        <ele>798</ele>
        <time>2009-07-11T14:58:56Z</time>
      </trkpt>
      <trkpt lat="44.84075" lon="3.73982">
        <ele>801</ele>
        <time>2009-07-11T14:59:07Z</time>
      </trkpt>
      <trkpt lat="44.84081" lon="3.74026">
        <ele>803</ele>
        <time>2009-07-11T14:59:22Z</time>
      </trkpt>
      <trkpt lat="44.84091" lon="3.74078">
        <ele>806</ele>
        <time>2009-07-11T14:59:40Z</time>
      </trkpt>
      <trkpt lat="44.84087" lon="3.74129">
        <ele>809</ele>
        <time>2009-07-11T14:59:57Z</time>
      </trkpt>
      <trkpt lat="44.84082" lon="3.74187">
        <ele>812</ele>
        <time>2009-07-11T15:00:17Z</time>
      </trkpt>
      <trkpt lat="44.84084" lon="3.74238">
        <ele>815</ele>
        <time>2009-07-11T15:00:33Z</time>
      </trkpt>
      <trkpt lat="44.84062" lon="3.74289">
        <ele>818</ele>
        <time>2009-07-11T15:00:51Z</time>
      </trkpt>
      <trkpt lat="44.8404" lon="3.74323">
        <ele>821</ele>
        <time>2009-07-11T15:01:06Z</time>
      </trkpt>
      <trkpt lat="44.84017" lon="3.74364">
        <ele>824</ele>
        <time>2009-07-11T15:01:22Z</time>
      </trkpt>
      <trkpt lat="44.84001" lon="3.74396">
        <ele>827</ele>
        <time>2009-07-11T15:01:34Z</time>
      </trkpt>
      <trkpt lat="44.8399" lon="3.74448">
        <ele>831</ele>
        <time>2009-07-11T15:01:50Z</time>
      </trkpt>
      <trkpt lat="44.83983" lon="3.74503">
        <ele>834</ele>
        <time>2009-07-11T15:02:06Z</time>
      </trkpt>
      <trkpt lat="44.83972" lon="3.74521">
        <ele>837</ele>
        <time>2009-07-11T15:02:13Z</time>
      </trkpt>
      <trkpt lat="44.83971" lon="3.74524">
        <ele>836</ele>
        <time>2009-07-11T15:02:14Z</time>
      </trkpt>
      <trkpt lat="44.8397" lon="3.74578">
        <ele>839</ele>
        <time>2009-07-11T15:02:31Z</time>
      </trkpt>
      <trkpt lat="44.83959" lon="3.74621">
        <ele>842</ele>
        <time>2009-07-11T15:02:45Z</time>
      </trkpt>
      <trkpt lat="44.83946" lon="3.74652">
        <ele>845</ele>
        <time>2009-07-11T15:02:56Z</time>
      </trkpt>
      <trkpt lat="44.83907" lon="3.7471">
        <ele>848</ele>
        <time>2009-07-11T15:03:20Z</time>
      </trkpt>
      <trkpt lat="44.83869" lon="3.74734">
        <ele>851</ele>
        <time>2009-07-11T15:03:38Z</time>
      </trkpt>
      <trkpt lat="44.83853" lon="3.7474">
        <ele>854</ele>
        <time>2009-07-11T15:03:45Z</time>
      </trkpt>
      <trkpt lat="44.83817" lon="3.74748">
        <ele>857</ele>
        <time>2009-07-11T15:04:00Z</time>
      </trkpt>
      <trkpt lat="44.83788" lon="3.74745">
        <ele>860</ele>
        <time>2009-07-11T15:04:12Z</time>
      </trkpt>
      <trkpt lat="44.83749" lon="3.74743">
        <ele>863</ele>
        <time>2009-07-11T15:04:28Z</time>
      </trkpt>
      <trkpt lat="44.83704" lon="3.74752">
        <ele>866</ele>
        <time>2009-07-11T15:04:47Z</time>
      </trkpt>
      <trkpt lat="44.83671" lon="3.74771">
        <ele>869</ele>
        <time>2009-07-11T15:05:02Z</time>
      </trkpt>
      <trkpt lat="44.8365" lon="3.74806">
        <ele>873</ele>
        <time>2009-07-11T15:05:16Z</time>
      </trkpt>
      <trkpt lat="44.83634" lon="3.7484">
        <ele>876</ele>
        <time>2009-07-11T15:05:28Z</time>
      </trkpt>
      <trkpt lat="44.83633" lon="3.74843">
        <ele>876</ele>
        <time>2009-07-11T15:05:29Z</time>
      </trkpt>
      <trkpt lat="44.83609" lon="3.74886">
        <ele>878</ele>
        <time>2009-07-11T15:05:45Z</time>
      </trkpt>
      <trkpt lat="44.83594" lon="3.74922">
        <ele>882</ele>
        <time>2009-07-11T15:05:57Z</time>
      </trkpt>
      <trkpt lat="44.83585" lon="3.74977">
        <ele>885</ele>
        <time>2009-07-11T15:06:12Z</time>
      </trkpt>
      <trkpt lat="44.83586" lon="3.75042">
        <ele>888</ele>
        <time>2009-07-11T15:06:30Z</time>
      </trkpt>
      <trkpt lat="44.83592" lon="3.75047">
        <ele>890</ele>
        <time>2009-07-11T15:06:33Z</time>
      </trkpt>
      <trkpt lat="44.83641" lon="3.75064">
        <ele>892</ele>
        <time>2009-07-11T15:06:51Z</time>
      </trkpt>
      <trkpt lat="44.83679" lon="3.75108">
        <ele>893</ele>
        <time>2009-07-11T15:07:07Z</time>
      </trkpt>
      <trkpt lat="44.83698" lon="3.75126">
        <ele>896</ele>
        <time>2009-07-11T15:07:15Z</time>
      </trkpt>
      <trkpt lat="44.8372" lon="3.75152">
        <ele>899</ele>
        <time>2009-07-11T15:07:25Z</time>
      </trkpt>
      <trkpt lat="44.83758" lon="3.75176">
        <ele>901</ele>
        <time>2009-07-11T15:07:41Z</time>
      </trkpt>
      <trkpt lat="44.8379" lon="3.75194">
        <ele>904</ele>
        <time>2009-07-11T15:07:54Z</time>
      </trkpt>
      <trkpt lat="44.83793" lon="3.75195">
        <ele>904</ele>
        <time>2009-07-11T15:07:55Z</time>
      </trkpt>
      <trkpt lat="44.83823" lon="3.75207">
        <ele>907</ele>
        <time>2009-07-11T15:08:07Z</time>
      </trkpt>
      <trkpt lat="44.83864" lon="3.75235">
        <ele>911</ele>
        <time>2009-07-11T15:08:25Z</time>
      </trkpt>
      <trkpt lat="44.83869" lon="3.75238">
        <ele>911</ele>
        <time>2009-07-11T15:08:27Z</time>
      </trkpt>
      <trkpt lat="44.839" lon="3.75257">
        <ele>915</ele>
        <time>2009-07-11T15:08:40Z</time>
      </trkpt>
      <trkpt lat="44.83926" lon="3.7528">
        <ele>918</ele>
        <time>2009-07-11T15:08:52Z</time>
      </trkpt>
      <trkpt lat="44.83968" lon="3.75303">
        <ele>920</ele>
        <time>2009-07-11T15:09:09Z</time>
      </trkpt>
      <trkpt lat="44.84003" lon="3.75311">
        <ele>923</ele>
        <time>2009-07-11T15:09:22Z</time>
      </trkpt>
      <trkpt lat="44.84051" lon="3.75352">
        <ele>924</ele>
        <time>2009-07-11T15:09:41Z</time>
      </trkpt>
      <trkpt lat="44.84091" lon="3.75391">
        <ele>927</ele>
        <time>2009-07-11T15:09:54Z</time>
      </trkpt>
      <trkpt lat="44.84151" lon="3.75387">
        <ele>927</ele>
        <time>2009-07-11T15:10:08Z</time>
      </trkpt>
      <trkpt lat="44.84235" lon="3.7537">
        <ele>929</ele>
        <time>2009-07-11T15:10:26Z</time>
      </trkpt>
      <trkpt lat="44.84255" lon="3.7537">
        <ele>928</ele>
        <time>2009-07-11T15:10:30Z</time>
      </trkpt>
      <trkpt lat="44.84269" lon="3.75374">
        <ele>929</ele>
        <time>2009-07-11T15:10:33Z</time>
      </trkpt>
      <trkpt lat="44.84286" lon="3.75389">
        <ele>928</ele>
        <time>2009-07-11T15:10:37Z</time>
      </trkpt>
      <trkpt lat="44.84307" lon="3.75418">
        <ele>930</ele>
        <time>2009-07-11T15:10:43Z</time>
      </trkpt>
      <trkpt lat="44.84367" lon="3.75466">
        <ele>933</ele>
        <time>2009-07-11T15:11:00Z</time>
      </trkpt>
      <trkpt lat="44.84407" lon="3.75475">
        <ele>936</ele>
        <time>2009-07-11T15:11:13Z</time>
      </trkpt>
      <trkpt lat="44.84441" lon="3.75488">
        <ele>939</ele>
        <time>2009-07-11T15:11:26Z</time>
      </trkpt>
      <trkpt lat="44.84466" lon="3.755">
        <ele>942</ele>
        <time>2009-07-11T15:11:37Z</time>
      </trkpt>
      <trkpt lat="44.84484" lon="3.75499">
        <ele>945</ele>
        <time>2009-07-11T15:11:45Z</time>
      </trkpt>
      <trkpt lat="44.84505" lon="3.75497">
        <ele>947</ele>
        <time>2009-07-11T15:11:54Z</time>
      </trkpt>
      <trkpt lat="44.84534" lon="3.75506">
        <ele>950</ele>
        <time>2009-07-11T15:12:07Z</time>
      </trkpt>
      <trkpt lat="44.84575" lon="3.75523">
        <ele>954</ele>
        <time>2009-07-11T15:12:26Z</time>
      </trkpt>
      <trkpt lat="44.84597" lon="3.75519">
        <ele>957</ele>
        <time>2009-07-11T15:12:36Z</time>
      </trkpt>
      <trkpt lat="44.84643" lon="3.75501">
        <ele>960</ele>
        <time>2009-07-11T15:12:57Z</time>
      </trkpt>
      <trkpt lat="44.84681" lon="3.75487">
        <ele>963</ele>
        <time>2009-07-11T15:13:14Z</time>
      </trkpt>
      <trkpt lat="44.84694" lon="3.75483">
        <ele>966</ele>
        <time>2009-07-11T15:13:20Z</time>
      </trkpt>
      <trkpt lat="44.84731" lon="3.7548">
        <ele>969</ele>
        <time>2009-07-11T15:13:37Z</time>
      </trkpt>
      <trkpt lat="44.84762" lon="3.75511">
        <ele>970</ele>
        <time>2009-07-11T15:13:55Z</time>
      </trkpt>
      <trkpt lat="44.84756" lon="3.75565">
        <ele>973</ele>
        <time>2009-07-11T15:14:12Z</time>
      </trkpt>
      <trkpt lat="44.84749" lon="3.75604">
        <ele>976</ele>
        <time>2009-07-11T15:14:24Z</time>
      </trkpt>
      <trkpt lat="44.84745" lon="3.75652">
        <ele>980</ele>
        <time>2009-07-11T15:14:38Z</time>
      </trkpt>
      <trkpt lat="44.84761" lon="3.7573">
        <ele>983</ele>
        <time>2009-07-11T15:15:01Z</time>
      </trkpt>
      <trkpt lat="44.84787" lon="3.75796">
        <ele>987</ele>
        <time>2009-07-11T15:15:20Z</time>
      </trkpt>
      <trkpt lat="44.84815" lon="3.75868">
        <ele>989</ele>
        <time>2009-07-11T15:15:40Z</time>
      </trkpt>
      <trkpt lat="44.84834" lon="3.75912">
        <ele>990</ele>
        <time>2009-07-11T15:15:54Z</time>
      </trkpt>
      <trkpt lat="44.84833" lon="3.75918">
        <ele>991</ele>
        <time>2009-07-11T15:16:06Z</time>
      </trkpt>
      <trkpt lat="44.84834" lon="3.75919">
        <ele>990</ele>
        <time>2009-07-11T15:16:30Z</time>
      </trkpt>
      <trkpt lat="44.84823" lon="3.75921">
        <ele>993</ele>
        <time>2009-07-11T15:17:33Z</time>
      </trkpt>
      <trkpt lat="44.84817" lon="3.75925">
        <ele>992</ele>
        <time>2009-07-11T15:18:11Z</time>
      </trkpt>
      <trkpt lat="44.84823" lon="3.7592">
        <ele>992</ele>
        <time>2009-07-11T15:19:18Z</time>
      </trkpt>
      <trkpt lat="44.84824" lon="3.75916">
        <ele>993</ele>
        <time>2009-07-11T15:21:57Z</time>
      </trkpt>
      <trkpt lat="44.84825" lon="3.75918">
        <ele>992</ele>
        <time>2009-07-11T15:23:05Z</time>
      </trkpt>
      <trkpt lat="44.84823" lon="3.75919">
        <ele>993</ele>
        <time>2009-07-11T15:24:15Z</time>
      </trkpt>
      <trkpt lat="44.84826" lon="3.75921">
        <ele>993</ele>
        <time>2009-07-11T15:24:23Z</time>
      </trkpt>
      <trkpt lat="44.84833" lon="3.75958">
        <ele>994</ele>
        <time>2009-07-11T15:24:35Z</time>
      </trkpt>
      <trkpt lat="44.84865" lon="3.76016">
        <ele>995</ele>
        <time>2009-07-11T15:24:52Z</time>
      </trkpt>
      <trkpt lat="44.84912" lon="3.7605">
        <ele>995</ele>
        <time>2009-07-11T15:25:09Z</time>
      </trkpt>
      <trkpt lat="44.8492" lon="3.76048">
        <ele>995</ele>
        <time>2009-07-11T15:25:11Z</time>
      </trkpt>
      <trkpt lat="44.84952" lon="3.76013">
        <ele>997</ele>
        <time>2009-07-11T15:25:23Z</time>
      </trkpt>
      <trkpt lat="44.84952" lon="3.76005">
        <ele>997</ele>
        <time>2009-07-11T15:25:25Z</time>
      </trkpt>
      <trkpt lat="44.84948" lon="3.75935">
        <ele>999</ele>
        <time>2009-07-11T15:25:44Z</time>
      </trkpt>
      <trkpt lat="44.84945" lon="3.75876">
        <ele>1002</ele>
        <time>2009-07-11T15:26:02Z</time>
      </trkpt>
      <trkpt lat="44.84944" lon="3.75844">
        <ele>1006</ele>
        <time>2009-07-11T15:26:12Z</time>
      </trkpt>
      <trkpt lat="44.84944" lon="3.75784">
        <ele>1009</ele>
        <time>2009-07-11T15:26:30Z</time>
      </trkpt>
      <trkpt lat="44.84954" lon="3.75743">
        <ele>1011</ele>
        <time>2009-07-11T15:26:46Z</time>
      </trkpt>
      <trkpt lat="44.84957" lon="3.75736">
        <ele>1011</ele>
        <time>2009-07-11T15:26:51Z</time>
      </trkpt>
      <trkpt lat="44.84963" lon="3.7574">
        <ele>1012</ele>
        <time>2009-07-11T15:26:55Z</time>
      </trkpt>
      <trkpt lat="44.84987" lon="3.7577">
        <ele>1014</ele>
        <time>2009-07-11T15:27:11Z</time>
      </trkpt>
      <trkpt lat="44.85018" lon="3.75802">
        <ele>1018</ele>
        <time>2009-07-11T15:27:29Z</time>
      </trkpt>
      <trkpt lat="44.85044" lon="3.75825">
        <ele>1021</ele>
        <time>2009-07-11T15:27:43Z</time>
      </trkpt>
      <trkpt lat="44.8508" lon="3.75858">
        <ele>1024</ele>
        <time>2009-07-11T15:28:03Z</time>
      </trkpt>
      <trkpt lat="44.85116" lon="3.7589">
        <ele>1027</ele>
        <time>2009-07-11T15:28:23Z</time>
      </trkpt>
      <trkpt lat="44.85142" lon="3.75916">
        <ele>1030</ele>
        <time>2009-07-11T15:28:38Z</time>
      </trkpt>
      <trkpt lat="44.85171" lon="3.75953">
        <ele>1033</ele>
        <time>2009-07-11T15:28:57Z</time>
      </trkpt>
      <trkpt lat="44.85186" lon="3.75983">
        <ele>1036</ele>
        <time>2009-07-11T15:29:09Z</time>
      </trkpt>
      <trkpt lat="44.85218" lon="3.76028">
        <ele>1038</ele>
        <time>2009-07-11T15:29:30Z</time>
      </trkpt>
      <trkpt lat="44.85238" lon="3.76051">
        <ele>1041</ele>
        <time>2009-07-11T15:29:42Z</time>
      </trkpt>
      <trkpt lat="44.85273" lon="3.76079">
        <ele>1044</ele>
        <time>2009-07-11T15:30:01Z</time>
      </trkpt>
      <trkpt lat="44.853" lon="3.76105">
        <ele>1048</ele>
        <time>2009-07-11T15:30:16Z</time>
      </trkpt>
      <trkpt lat="44.85334" lon="3.76136">
        <ele>1051</ele>
        <time>2009-07-11T15:30:35Z</time>
      </trkpt>
      <trkpt lat="44.85356" lon="3.76154">
        <ele>1053</ele>
        <time>2009-07-11T15:30:47Z</time>
      </trkpt>
      <trkpt lat="44.85374" lon="3.76171">
        <ele>1056</ele>
        <time>2009-07-11T15:30:57Z</time>
      </trkpt>
      <trkpt lat="44.85405" lon="3.76211">
        <ele>1057</ele>
        <time>2009-07-11T15:31:17Z</time>
      </trkpt>
      <trkpt lat="44.85407" lon="3.76216">
        <ele>1058</ele>
        <time>2009-07-11T15:31:19Z</time>
      </trkpt>
      <trkpt lat="44.85417" lon="3.76243">
        <ele>1060</ele>
        <time>2009-07-11T15:31:29Z</time>
      </trkpt>
      <trkpt lat="44.85431" lon="3.76277">
        <ele>1063</ele>
        <time>2009-07-11T15:31:42Z</time>
      </trkpt>
      <trkpt lat="44.85452" lon="3.76314">
        <ele>1067</ele>
        <time>2009-07-11T15:31:58Z</time>
      </trkpt>
      <trkpt lat="44.85477" lon="3.76364">
        <ele>1070</ele>
        <time>2009-07-11T15:32:18Z</time>
      </trkpt>
      <trkpt lat="44.85499" lon="3.76401">
        <ele>1073</ele>
        <time>2009-07-11T15:32:34Z</time>
      </trkpt>
      <trkpt lat="44.85502" lon="3.76406">
        <ele>1074</ele>
        <time>2009-07-11T15:32:36Z</time>
      </trkpt>
      <trkpt lat="44.85513" lon="3.76433">
        <ele>1077</ele>
        <time>2009-07-11T15:32:47Z</time>
      </trkpt>
      <trkpt lat="44.85525" lon="3.76483">
        <ele>1079</ele>
        <time>2009-07-11T15:33:07Z</time>
      </trkpt>
      <trkpt lat="44.85527" lon="3.76493">
        <ele>1080</ele>
        <time>2009-07-11T15:33:12Z</time>
      </trkpt>
      <trkpt lat="44.85536" lon="3.76512">
        <ele>1083</ele>
        <time>2009-07-11T15:33:23Z</time>
      </trkpt>
      <trkpt lat="44.85551" lon="3.7653">
        <ele>1087</ele>
        <time>2009-07-11T15:33:36Z</time>
      </trkpt>
      <trkpt lat="44.85555" lon="3.76535">
        <ele>1088</ele>
        <time>2009-07-11T15:33:40Z</time>
      </trkpt>
      <trkpt lat="44.8557" lon="3.76552">
        <ele>1091</ele>
        <time>2009-07-11T15:33:53Z</time>
      </trkpt>
      <trkpt lat="44.85594" lon="3.76579">
        <ele>1094</ele>
        <time>2009-07-11T15:34:13Z</time>
      </trkpt>
      <trkpt lat="44.85605" lon="3.76593">
        <ele>1097</ele>
        <time>2009-07-11T15:34:23Z</time>
      </trkpt>
      <trkpt lat="44.85614" lon="3.76604">
        <ele>1100</ele>
        <time>2009-07-11T15:34:31Z</time>
      </trkpt>
      <trkpt lat="44.85634" lon="3.76629">
        <ele>1103</ele>
        <time>2009-07-11T15:34:49Z</time>
      </trkpt>
      <trkpt lat="44.85652" lon="3.76647">
        <ele>1106</ele>
        <time>2009-07-11T15:35:04Z</time>
      </trkpt>
      <trkpt lat="44.85671" lon="3.76662">
        <ele>1109</ele>
        <time>2009-07-11T15:35:18Z</time>
      </trkpt>
      <trkpt lat="44.85692" lon="3.76674">
        <ele>1113</ele>
        <time>2009-07-11T15:35:32Z</time>
      </trkpt>
      <trkpt lat="44.85716" lon="3.76691">
        <ele>1116</ele>
        <time>2009-07-11T15:35:48Z</time>
      </trkpt>
      <trkpt lat="44.85744" lon="3.7671">
        <ele>1119</ele>
        <time>2009-07-11T15:36:05Z</time>
      </trkpt>
      <trkpt lat="44.85775" lon="3.76739">
        <ele>1119</ele>
        <time>2009-07-11T15:36:24Z</time>
      </trkpt>
      <trkpt lat="44.858" lon="3.76767">
        <ele>1122</ele>
        <time>2009-07-11T15:36:40Z</time>
      </trkpt>
      <trkpt lat="44.85823" lon="3.76794">
        <ele>1124</ele>
        <time>2009-07-11T15:36:55Z</time>
      </trkpt>
      <trkpt lat="44.85848" lon="3.76825">
        <ele>1127</ele>
        <time>2009-07-11T15:37:11Z</time>
      </trkpt>
      <trkpt lat="44.85882" lon="3.7685">
        <ele>1130</ele>
        <time>2009-07-11T15:37:29Z</time>
      </trkpt>
      <trkpt lat="44.85884" lon="3.76851">
        <ele>1130</ele>
        <time>2009-07-11T15:37:30Z</time>
      </trkpt>
      <trkpt lat="44.85886" lon="3.76855">
        <ele>1131</ele>
        <time>2009-07-11T15:37:41Z</time>
      </trkpt>
      <trkpt lat="44.85886" lon="3.76856">
        <ele>1128</ele>
        <time>2009-07-11T15:38:11Z</time>
      </trkpt>
      <trkpt lat="44.85886" lon="3.76856">
        <ele>1132</ele>
        <time>2009-07-11T15:38:13Z</time>
      </trkpt>
      <trkpt lat="44.85886" lon="3.76856">
        <ele>1131</ele>
        <time>2009-07-11T15:39:08Z</time>
      </trkpt>
      <trkpt lat="44.85886" lon="3.76857">
        <ele>1132</ele>
        <time>2009-07-11T15:39:51Z</time>
      </trkpt>
      <trkpt lat="44.85881" lon="3.76894">
        <ele>1133</ele>
        <time>2009-07-11T15:40:06Z</time>
      </trkpt>
      <trkpt lat="44.85873" lon="3.76933">
        <ele>1137</ele>
        <time>2009-07-11T15:40:22Z</time>
      </trkpt>
      <trkpt lat="44.8588" lon="3.76968">
        <ele>1140</ele>
        <time>2009-07-11T15:40:37Z</time>
      </trkpt>
      <trkpt lat="44.85901" lon="3.77008">
        <ele>1143</ele>
        <time>2009-07-11T15:40:58Z</time>
      </trkpt>
      <trkpt lat="44.85911" lon="3.77042">
        <ele>1146</ele>
        <time>2009-07-11T15:41:14Z</time>
      </trkpt>
      <trkpt lat="44.85915" lon="3.77069">
        <ele>1147</ele>
        <time>2009-07-11T15:41:26Z</time>
      </trkpt>
      <trkpt lat="44.85918" lon="3.77107">
        <ele>1149</ele>
        <time>2009-07-11T15:41:42Z</time>
      </trkpt>
      <trkpt lat="44.85919" lon="3.77117">
        <ele>1148</ele>
        <time>2009-07-11T15:41:46Z</time>
      </trkpt>
      <trkpt lat="44.85938" lon="3.77142">
        <ele>1150</ele>
        <time>2009-07-11T15:42:01Z</time>
      </trkpt>
      <trkpt lat="44.85971" lon="3.77155">
        <ele>1153</ele>
        <time>2009-07-11T15:42:19Z</time>
      </trkpt>
      <trkpt lat="44.86002" lon="3.77179">
        <ele>1156</ele>
        <time>2009-07-11T15:42:37Z</time>
      </trkpt>
      <trkpt lat="44.86029" lon="3.77205">
        <ele>1158</ele>
        <time>2009-07-11T15:42:53Z</time>
      </trkpt>
      <trkpt lat="44.86065" lon="3.77247">
        <ele>1161</ele>
        <time>2009-07-11T15:43:14Z</time>
      </trkpt>
      <trkpt lat="44.86103" lon="3.77272">
        <ele>1163</ele>
        <time>2009-07-11T15:43:33Z</time>
      </trkpt>
      <trkpt lat="44.86142" lon="3.77308">
        <ele>1165</ele>
        <time>2009-07-11T15:43:52Z</time>
      </trkpt>
      <trkpt lat="44.86191" lon="3.77334">
        <ele>1166</ele>
        <time>2009-07-11T15:44:10Z</time>
      </trkpt>
      <trkpt lat="44.86252" lon="3.7737">
        <ele>1167</ele>
        <time>2009-07-11T15:44:30Z</time>
      </trkpt>
      <trkpt lat="44.86306" lon="3.77404">
        <ele>1169</ele>
        <time>2009-07-11T15:44:48Z</time>
      </trkpt>
      <trkpt lat="44.86351" lon="3.77447">
        <ele>1172</ele>
        <time>2009-07-11T15:45:06Z</time>
      </trkpt>
      <trkpt lat="44.86407" lon="3.77501">
        <ele>1174</ele>
        <time>2009-07-11T15:45:28Z</time>
      </trkpt>
      <trkpt lat="44.86457" lon="3.77548">
        <ele>1175</ele>
        <time>2009-07-11T15:45:47Z</time>
      </trkpt>
      <trkpt lat="44.86492" lon="3.77617">
        <ele>1175</ele>
        <time>2009-07-11T15:46:05Z</time>
      </trkpt>
      <trkpt lat="44.86541" lon="3.77683">
        <ele>1176</ele>
        <time>2009-07-11T15:46:25Z</time>
      </trkpt>
      <trkpt lat="44.86581" lon="3.77726">
        <ele>1176</ele>
        <time>2009-07-11T15:46:39Z</time>
      </trkpt>
      <trkpt lat="44.86617" lon="3.77778">
        <ele>1177</ele>
        <time>2009-07-11T15:46:54Z</time>
      </trkpt>
      <trkpt lat="44.86651" lon="3.77833">
        <ele>1181</ele>
        <time>2009-07-11T15:47:13Z</time>
      </trkpt>
      <trkpt lat="44.86664" lon="3.77862">
        <ele>1184</ele>
        <time>2009-07-11T15:47:23Z</time>
      </trkpt>
      <trkpt lat="44.86665" lon="3.77865">
        <ele>1184</ele>
        <time>2009-07-11T15:47:24Z</time>
      </trkpt>
      <trkpt lat="44.8667" lon="3.77876">
        <ele>1185</ele>
        <time>2009-07-11T15:47:28Z</time>
      </trkpt>
      <trkpt lat="44.86674" lon="3.77885">
        <ele>1187</ele>
        <time>2009-07-11T15:47:31Z</time>
      </trkpt>
      <trkpt lat="44.86695" lon="3.77957">
        <ele>1189</ele>
        <time>2009-07-11T15:47:52Z</time>
      </trkpt>
      <trkpt lat="44.86724" lon="3.78027">
        <ele>1191</ele>
        <time>2009-07-11T15:48:12Z</time>
      </trkpt>
      <trkpt lat="44.86755" lon="3.78081">
        <ele>1194</ele>
        <time>2009-07-11T15:48:28Z</time>
      </trkpt>
      <trkpt lat="44.86789" lon="3.78121">
        <ele>1196</ele>
        <time>2009-07-11T15:48:42Z</time>
      </trkpt>
      <trkpt lat="44.86813" lon="3.78155">
        <ele>1198</ele>
        <time>2009-07-11T15:48:57Z</time>
      </trkpt>
      <trkpt lat="44.86821" lon="3.78181">
        <ele>1199</ele>
        <time>2009-07-11T15:49:09Z</time>
      </trkpt>
      <trkpt lat="44.8683" lon="3.78215">
        <ele>1200</ele>
        <time>2009-07-11T15:49:27Z</time>
      </trkpt>
      <trkpt lat="44.86831" lon="3.78217">
        <ele>1200</ele>
        <time>2009-07-11T15:49:28Z</time>
      </trkpt>
      <trkpt lat="44.86841" lon="3.78222">
        <ele>1200</ele>
        <time>2009-07-11T15:49:39Z</time>
      </trkpt>
      <trkpt lat="44.86842" lon="3.78224">
        <ele>1201</ele>
        <time>2009-07-11T15:49:41Z</time>
      </trkpt>
      <trkpt lat="44.86845" lon="3.78225">
        <ele>1199</ele>
        <time>2009-07-11T15:50:00Z</time>
      </trkpt>
      <trkpt lat="44.86853" lon="3.78229">
        <ele>1200</ele>
        <time>2009-07-11T15:50:16Z</time>
      </trkpt>
      <trkpt lat="44.86881" lon="3.7824">
        <ele>1200</ele>
        <time>2009-07-11T15:50:31Z</time>
      </trkpt>
      <trkpt lat="44.86907" lon="3.78255">
        <ele>1197</ele>
        <time>2009-07-11T15:50:43Z</time>
      </trkpt>
      <trkpt lat="44.8694" lon="3.78273">
        <ele>1199</ele>
        <time>2009-07-11T15:50:58Z</time>
      </trkpt>
      <trkpt lat="44.86967" lon="3.78294">
        <ele>1199</ele>
        <time>2009-07-11T15:51:10Z</time>
      </trkpt>
      <trkpt lat="44.87016" lon="3.78327">
        <ele>1201</ele>
        <time>2009-07-11T15:51:29Z</time>
      </trkpt>
      <trkpt lat="44.87078" lon="3.78368">
        <ele>1203</ele>
        <time>2009-07-11T15:51:53Z</time>
      </trkpt>
      <trkpt lat="44.87115" lon="3.78392">
        <ele>1205</ele>
        <time>2009-07-11T15:52:09Z</time>
      </trkpt>
      <trkpt lat="44.87152" lon="3.78388">
        <ele>1207</ele>
        <time>2009-07-11T15:52:26Z</time>
      </trkpt>
      <trkpt lat="44.87161" lon="3.7838">
        <ele>1208</ele>
        <time>2009-07-11T15:52:40Z</time>
      </trkpt>
      <trkpt lat="44.87161" lon="3.78381">
        <ele>1208</ele>
        <time>2009-07-11T15:52:44Z</time>
      </trkpt>
      <trkpt lat="44.87152" lon="3.78389">
        <ele>1206</ele>
        <time>2009-07-11T15:52:51Z</time>
      </trkpt>
      <trkpt lat="44.87114" lon="3.78392">
        <ele>1207</ele>
        <time>2009-07-11T15:53:06Z</time>
      </trkpt>
      <trkpt lat="44.87082" lon="3.78372">
        <ele>1205</ele>
        <time>2009-07-11T15:53:19Z</time>
      </trkpt>
      <trkpt lat="44.87079" lon="3.7837">
        <ele>1206</ele>
        <time>2009-07-11T15:53:33Z</time>
      </trkpt>
      <trkpt lat="44.87079" lon="3.7837">
        <ele>1206</ele>
        <time>2009-07-11T15:53:43Z</time>
      </trkpt>
      <trkpt lat="44.87079" lon="3.7837">
        <ele>1202</ele>
        <time>2009-07-11T15:53:44Z</time>
      </trkpt>
      <trkpt lat="44.87079" lon="3.7837">
        <ele>1206</ele>
        <time>2009-07-11T15:53:45Z</time>
      </trkpt>
      <trkpt lat="44.87079" lon="3.7837">
        <ele>1205</ele>
        <time>2009-07-11T15:54:02Z</time>
      </trkpt>
      <trkpt lat="44.87067" lon="3.78363">
        <ele>1204</ele>
        <time>2009-07-11T15:54:09Z</time>
      </trkpt>
      <trkpt lat="44.87031" lon="3.78336">
        <ele>1203</ele>
        <time>2009-07-11T15:54:22Z</time>
      </trkpt>
      <trkpt lat="44.87022" lon="3.78349">
        <ele>1203</ele>
        <time>2009-07-11T15:54:27Z</time>
      </trkpt>
      <trkpt lat="44.87021" lon="3.78399">
        <ele>1202</ele>
        <time>2009-07-11T15:54:41Z</time>
      </trkpt>
      <trkpt lat="44.87021" lon="3.78406">
        <ele>1203</ele>
        <time>2009-07-11T15:54:43Z</time>
      </trkpt>
      <trkpt lat="44.87019" lon="3.7845">
        <ele>1203</ele>
        <time>2009-07-11T15:54:55Z</time>
      </trkpt>
      <trkpt lat="44.87017" lon="3.78462">
        <ele>1203</ele>
        <time>2009-07-11T15:54:58Z</time>
      </trkpt>
      <trkpt lat="44.87023" lon="3.78476">
        <ele>1204</ele>
        <time>2009-07-11T15:55:04Z</time>
      </trkpt>
      <trkpt lat="44.87063" lon="3.78484">
        <ele>1204</ele>
        <time>2009-07-11T15:55:22Z</time>
      </trkpt>
      <trkpt lat="44.87098" lon="3.78492">
        <ele>1205</ele>
        <time>2009-07-11T15:55:39Z</time>
      </trkpt>
      <trkpt lat="44.87121" lon="3.7849">
        <ele>1206</ele>
        <time>2009-07-11T15:55:51Z</time>
      </trkpt>
      <trkpt lat="44.87154" lon="3.78497">
        <ele>1208</ele>
        <time>2009-07-11T15:56:09Z</time>
      </trkpt>
      <trkpt lat="44.87177" lon="3.78504">
        <ele>1209</ele>
        <time>2009-07-11T15:56:21Z</time>
      </trkpt>
      <trkpt lat="44.87213" lon="3.78521">
        <ele>1210</ele>
        <time>2009-07-11T15:56:42Z</time>
      </trkpt>
      <trkpt lat="44.87246" lon="3.78545">
        <ele>1213</ele>
        <time>2009-07-11T15:57:02Z</time>
      </trkpt>
      <trkpt lat="44.87256" lon="3.78553">
        <ele>1213</ele>
        <time>2009-07-11T15:57:09Z</time>
      </trkpt>
      <trkpt lat="44.87286" lon="3.78571">
        <ele>1215</ele>
        <time>2009-07-11T15:57:26Z</time>
      </trkpt>
      <trkpt lat="44.87331" lon="3.78614">
        <ele>1216</ele>
        <time>2009-07-11T15:57:50Z</time>
      </trkpt>
      <trkpt lat="44.87372" lon="3.78654">
        <ele>1217</ele>
        <time>2009-07-11T15:58:12Z</time>
      </trkpt>
      <trkpt lat="44.87398" lon="3.78673">
        <ele>1218</ele>
        <time>2009-07-11T15:58:24Z</time>
      </trkpt>
      <trkpt lat="44.87442" lon="3.78692">
        <ele>1221</ele>
        <time>2009-07-11T15:58:42Z</time>
      </trkpt>
      <trkpt lat="44.87483" lon="3.78703">
        <ele>1222</ele>
        <time>2009-07-11T15:59:00Z</time>
      </trkpt>
      <trkpt lat="44.87519" lon="3.78731">
        <ele>1224</ele>
        <time>2009-07-11T15:59:18Z</time>
      </trkpt>
      <trkpt lat="44.87551" lon="3.78751">
        <ele>1227</ele>
        <time>2009-07-11T15:59:33Z</time>
      </trkpt>
      <trkpt lat="44.87562" lon="3.7876">
        <ele>1229</ele>
        <time>2009-07-11T15:59:39Z</time>
      </trkpt>
      <trkpt lat="44.876" lon="3.78785">
        <ele>1230</ele>
        <time>2009-07-11T15:59:57Z</time>
      </trkpt>
      <trkpt lat="44.87646" lon="3.78804">
        <ele>1232</ele>
        <time>2009-07-11T16:00:16Z</time>
      </trkpt>
      <trkpt lat="44.87693" lon="3.78802">
        <ele>1233</ele>
        <time>2009-07-11T16:00:33Z</time>
      </trkpt>
      <trkpt lat="44.87753" lon="3.78819">
        <ele>1235</ele>
        <time>2009-07-11T16:00:55Z</time>
      </trkpt>
      <trkpt lat="44.87811" lon="3.78837">
        <ele>1237</ele>
        <time>2009-07-11T16:01:16Z</time>
      </trkpt>
      <trkpt lat="44.87858" lon="3.78848">
        <ele>1237</ele>
        <time>2009-07-11T16:01:32Z</time>
      </trkpt>
      <trkpt lat="44.87922" lon="3.78871">
        <ele>1238</ele>
        <time>2009-07-11T16:01:52Z</time>
      </trkpt>
      <trkpt lat="44.87984" lon="3.78887">
        <ele>1238</ele>
        <time>2009-07-11T16:02:10Z</time>
      </trkpt>
      <trkpt lat="44.88044" lon="3.78899">
        <ele>1236</ele>
        <time>2009-07-11T16:02:26Z</time>
      </trkpt>
      <trkpt lat="44.88114" lon="3.7891">
        <ele>1237</ele>
        <time>2009-07-11T16:02:44Z</time>
      </trkpt>
      <trkpt lat="44.8816" lon="3.78903">
        <ele>1238</ele>
        <time>2009-07-11T16:02:58Z</time>
      </trkpt>
      <trkpt lat="44.88162" lon="3.78904">
        <ele>1238</ele>
        <time>2009-07-11T16:03:12Z</time>
      </trkpt>
      <trkpt lat="44.88166" lon="3.78905">
        <ele>1237</ele>
        <time>2009-07-11T16:03:51Z</time>
      </trkpt>
      <trkpt lat="44.88167" lon="3.78905">
        <ele>1237</ele>
        <time>2009-07-11T16:04:53Z</time>
      </trkpt>
      <trkpt lat="44.88167" lon="3.78903">
        <ele>1238</ele>
        <time>2009-07-11T16:05:07Z</time>
      </trkpt>
      <trkpt lat="44.88169" lon="3.789">
        <ele>1238</ele>
        <time>2009-07-11T16:05:24Z</time>
      </trkpt>
      <trkpt lat="44.882" lon="3.78887">
        <ele>1235</ele>
        <time>2009-07-11T16:05:33Z</time>
      </trkpt>
      <trkpt lat="44.88212" lon="3.78883">
        <ele>1232</ele>
        <time>2009-07-11T16:05:35Z</time>
      </trkpt>
      <trkpt lat="44.88244" lon="3.78874">
        <ele>1229</ele>
        <time>2009-07-11T16:05:39Z</time>
      </trkpt>
      <trkpt lat="44.8827" lon="3.78861">
        <ele>1225</ele>
        <time>2009-07-11T16:05:42Z</time>
      </trkpt>
      <trkpt lat="44.88278" lon="3.78857">
        <ele>1226</ele>
        <time>2009-07-11T16:05:43Z</time>
      </trkpt>
      <trkpt lat="44.88296" lon="3.7885">
        <ele>1225</ele>
        <time>2009-07-11T16:05:45Z</time>
      </trkpt>
      <trkpt lat="44.88391" lon="3.78823">
        <ele>1225</ele>
        <time>2009-07-11T16:05:57Z</time>
      </trkpt>
      <trkpt lat="44.88398" lon="3.7882">
        <ele>1225</ele>
        <time>2009-07-11T16:05:58Z</time>
      </trkpt>
      <trkpt lat="44.88494" lon="3.78788">
        <ele>1223</ele>
        <time>2009-07-11T16:06:15Z</time>
      </trkpt>
      <trkpt lat="44.88582" lon="3.78752">
        <ele>1220</ele>
        <time>2009-07-11T16:06:32Z</time>
      </trkpt>
      <trkpt lat="44.88675" lon="3.78706">
        <ele>1221</ele>
        <time>2009-07-11T16:06:53Z</time>
      </trkpt>
      <trkpt lat="44.88694" lon="3.78699">
        <ele>1221</ele>
        <time>2009-07-11T16:06:59Z</time>
      </trkpt>
      <trkpt lat="44.88703" lon="3.78713">
        <ele>1220</ele>
        <time>2009-07-11T16:07:04Z</time>
      </trkpt>
      <trkpt lat="44.88742" lon="3.7881">
        <ele>1220</ele>
        <time>2009-07-11T16:07:24Z</time>
      </trkpt>
      <trkpt lat="44.88772" lon="3.78883">
        <ele>1220</ele>
        <time>2009-07-11T16:07:41Z</time>
      </trkpt>
      <trkpt lat="44.88781" lon="3.78938">
        <ele>1220</ele>
        <time>2009-07-11T16:07:54Z</time>
      </trkpt>
      <trkpt lat="44.88792" lon="3.79012">
        <ele>1219</ele>
        <time>2009-07-11T16:08:10Z</time>
      </trkpt>
      <trkpt lat="44.88814" lon="3.7902">
        <ele>1218</ele>
        <time>2009-07-11T16:08:18Z</time>
      </trkpt>
      <trkpt lat="44.88849" lon="3.79024">
        <ele>1219</ele>
        <time>2009-07-11T16:08:31Z</time>
      </trkpt>
      <trkpt lat="44.88858" lon="3.79015">
        <ele>1219</ele>
        <time>2009-07-11T16:08:42Z</time>
      </trkpt>
      <trkpt lat="44.88858" lon="3.79015">
        <ele>1220</ele>
        <time>2009-07-11T16:08:52Z</time>
      </trkpt>
      <trkpt lat="44.88866" lon="3.7902">
        <ele>1219</ele>
        <time>2009-07-11T16:08:57Z</time>
      </trkpt>
      <trkpt lat="44.88874" lon="3.79018">
        <ele>1219</ele>
        <time>2009-07-11T16:09:01Z</time>
      </trkpt>
      <trkpt lat="44.88902" lon="3.7898">
        <ele>1221</ele>
        <time>2009-07-11T16:09:13Z</time>
      </trkpt>
      <trkpt lat="44.88919" lon="3.78961">
        <ele>1220</ele>
        <time>2009-07-11T16:09:19Z</time>
      </trkpt>
      <trkpt lat="44.88969" lon="3.78922">
        <ele>1223</ele>
        <time>2009-07-11T16:09:35Z</time>
      </trkpt>
      <trkpt lat="44.88972" lon="3.7892">
        <ele>1223</ele>
        <time>2009-07-11T16:09:36Z</time>
      </trkpt>
      <trkpt lat="44.88985" lon="3.7893">
        <ele>1223</ele>
        <time>2009-07-11T16:09:41Z</time>
      </trkpt>
      <trkpt lat="44.89023" lon="3.78978">
        <ele>1227</ele>
        <time>2009-07-11T16:10:00Z</time>
      </trkpt>
      <trkpt lat="44.89043" lon="3.78951">
        <ele>1229</ele>
        <time>2009-07-11T16:10:12Z</time>
      </trkpt>
      <trkpt lat="44.89077" lon="3.78934">
        <ele>1230</ele>
        <time>2009-07-11T16:10:25Z</time>
      </trkpt>
      <trkpt lat="44.89092" lon="3.78935">
        <ele>1229</ele>
        <time>2009-07-11T16:10:31Z</time>
      </trkpt>
      <trkpt lat="44.89099" lon="3.78929">
        <ele>1230</ele>
        <time>2009-07-11T16:10:35Z</time>
      </trkpt>
      <trkpt lat="44.89124" lon="3.78872">
        <ele>1230</ele>
        <time>2009-07-11T16:10:51Z</time>
      </trkpt>
      <trkpt lat="44.89124" lon="3.78866">
        <ele>1230</ele>
        <time>2009-07-11T16:10:53Z</time>
      </trkpt>
      <trkpt lat="44.89127" lon="3.78859">
        <ele>1229</ele>
        <time>2009-07-11T16:11:03Z</time>
      </trkpt>
      <trkpt lat="44.89128" lon="3.78859">
        <ele>1230</ele>
        <time>2009-07-11T16:11:08Z</time>
      </trkpt>
    </trkseg>
  </trk>
</gpx>